<?xml version="1.0" encoding="UTF-8" standalone="no" ?>
<gpx xmlns="http://www.topografix.com/GPX/1/1" xmlns:xsi="http://www.w3.org/2001/XMLSchema-instance" xsi:schemaLocation="http://www.topografix.com/GPX/1/1 http://www.topografix.com/GPX/1/1/gpx.xsd" version="1.1" creator="VisuGPX - https://www.visugpx.com">
  <metadata>
    <name>Cyclo - Vers Métabief</name>
    <desc><![CDATA[Rando cyclo gastronomique :)]]></desc>
  </metadata>
  <trk>
    <name><![CDATA[05-JUIN-19 10:52:33]]></name>
    <trkseg>
      <trkpt lat="46.77096" lon="6.27521">
        <ele>843.21</ele>
        <time>2019-06-05T06:07:48Z</time>
      </trkpt>
      <trkpt lat="46.77101" lon="6.2751">
        <ele>842.73</ele>
        <time>2019-06-05T06:07:52Z</time>
      </trkpt>
      <trkpt lat="46.7713" lon="6.27512">
        <ele>843.21</ele>
        <time>2019-06-05T06:08:06Z</time>
      </trkpt>
      <trkpt lat="46.77148" lon="6.27532">
        <ele>843.21</ele>
        <time>2019-06-05T06:08:15Z</time>
      </trkpt>
      <trkpt lat="46.77147" lon="6.27573">
        <ele>843.69</ele>
        <time>2019-06-05T06:08:25Z</time>
      </trkpt>
      <trkpt lat="46.77155" lon="6.27631">
        <ele>843.69</ele>
        <time>2019-06-05T06:08:38Z</time>
      </trkpt>
      <trkpt lat="46.77162" lon="6.27691">
        <ele>844.18</ele>
        <time>2019-06-05T06:08:52Z</time>
      </trkpt>
      <trkpt lat="46.77157" lon="6.27749">
        <ele>844.66</ele>
        <time>2019-06-05T06:09:05Z</time>
      </trkpt>
      <trkpt lat="46.77142" lon="6.27821">
        <ele>844.66</ele>
        <time>2019-06-05T06:09:18Z</time>
      </trkpt>
      <trkpt lat="46.77139" lon="6.27834">
        <ele>844.66</ele>
        <time>2019-06-05T06:09:20Z</time>
      </trkpt>
      <trkpt lat="46.7713" lon="6.27859">
        <ele>844.18</ele>
        <time>2019-06-05T06:09:24Z</time>
      </trkpt>
      <trkpt lat="46.77126" lon="6.27872">
        <ele>844.18</ele>
        <time>2019-06-05T06:09:26Z</time>
      </trkpt>
      <trkpt lat="46.77091" lon="6.27928">
        <ele>845.14</ele>
        <time>2019-06-05T06:09:39Z</time>
      </trkpt>
      <trkpt lat="46.77076" lon="6.2793">
        <ele>845.14</ele>
        <time>2019-06-05T06:09:43Z</time>
      </trkpt>
      <trkpt lat="46.77022" lon="6.27908">
        <ele>846.58</ele>
        <time>2019-06-05T06:09:59Z</time>
      </trkpt>
      <trkpt lat="46.76993" lon="6.27865">
        <ele>848.02</ele>
        <time>2019-06-05T06:10:13Z</time>
      </trkpt>
      <trkpt lat="46.7696" lon="6.27806">
        <ele>849.46</ele>
        <time>2019-06-05T06:10:29Z</time>
      </trkpt>
      <trkpt lat="46.7692" lon="6.27758">
        <ele>850.9</ele>
        <time>2019-06-05T06:10:45Z</time>
      </trkpt>
      <trkpt lat="46.76884" lon="6.27722">
        <ele>852.83</ele>
        <time>2019-06-05T06:10:59Z</time>
      </trkpt>
      <trkpt lat="46.76834" lon="6.27682">
        <ele>854.75</ele>
        <time>2019-06-05T06:11:17Z</time>
      </trkpt>
      <trkpt lat="46.76785" lon="6.27648">
        <ele>855.71</ele>
        <time>2019-06-05T06:11:33Z</time>
      </trkpt>
      <trkpt lat="46.76733" lon="6.27609">
        <ele>857.15</ele>
        <time>2019-06-05T06:11:49Z</time>
      </trkpt>
      <trkpt lat="46.76674" lon="6.27567">
        <ele>858.59</ele>
        <time>2019-06-05T06:12:06Z</time>
      </trkpt>
      <trkpt lat="46.76621" lon="6.27521">
        <ele>859.56</ele>
        <time>2019-06-05T06:12:22Z</time>
      </trkpt>
      <trkpt lat="46.76591" lon="6.27485">
        <ele>860.52</ele>
        <time>2019-06-05T06:12:34Z</time>
      </trkpt>
      <trkpt lat="46.7657" lon="6.27501">
        <ele>860.52</ele>
        <time>2019-06-05T06:12:42Z</time>
      </trkpt>
      <trkpt lat="46.76567" lon="6.27501">
        <ele>861</ele>
        <time>2019-06-05T06:12:43Z</time>
      </trkpt>
      <trkpt lat="46.76507" lon="6.27498">
        <ele>862.92</ele>
        <time>2019-06-05T06:13:00Z</time>
      </trkpt>
      <trkpt lat="46.7647" lon="6.27505">
        <ele>865.32</ele>
        <time>2019-06-05T06:13:13Z</time>
      </trkpt>
      <trkpt lat="46.76446" lon="6.27536">
        <ele>867.73</ele>
        <time>2019-06-05T06:13:25Z</time>
      </trkpt>
      <trkpt lat="46.76443" lon="6.27548">
        <ele>868.21</ele>
        <time>2019-06-05T06:13:28Z</time>
      </trkpt>
      <trkpt lat="46.76422" lon="6.27598">
        <ele>868.21</ele>
        <time>2019-06-05T06:13:43Z</time>
      </trkpt>
      <trkpt lat="46.76397" lon="6.27676">
        <ele>870.13</ele>
        <time>2019-06-05T06:14:01Z</time>
      </trkpt>
      <trkpt lat="46.76401" lon="6.27752">
        <ele>871.57</ele>
        <time>2019-06-05T06:14:18Z</time>
      </trkpt>
      <trkpt lat="46.76375" lon="6.27834">
        <ele>869.65</ele>
        <time>2019-06-05T06:14:33Z</time>
      </trkpt>
      <trkpt lat="46.76352" lon="6.27898">
        <ele>868.21</ele>
        <time>2019-06-05T06:14:41Z</time>
      </trkpt>
      <trkpt lat="46.76354" lon="6.27951">
        <ele>867.25</ele>
        <time>2019-06-05T06:14:47Z</time>
      </trkpt>
      <trkpt lat="46.76363" lon="6.27987">
        <ele>867.73</ele>
        <time>2019-06-05T06:14:52Z</time>
      </trkpt>
      <trkpt lat="46.7636" lon="6.28077">
        <ele>869.17</ele>
        <time>2019-06-05T06:15:07Z</time>
      </trkpt>
      <trkpt lat="46.76347" lon="6.28152">
        <ele>870.13</ele>
        <time>2019-06-05T06:15:21Z</time>
      </trkpt>
      <trkpt lat="46.76356" lon="6.28224">
        <ele>871.57</ele>
        <time>2019-06-05T06:15:35Z</time>
      </trkpt>
      <trkpt lat="46.76377" lon="6.28299">
        <ele>873.01</ele>
        <time>2019-06-05T06:15:50Z</time>
      </trkpt>
      <trkpt lat="46.76399" lon="6.28356">
        <ele>873.98</ele>
        <time>2019-06-05T06:16:03Z</time>
      </trkpt>
      <trkpt lat="46.76406" lon="6.28421">
        <ele>875.42</ele>
        <time>2019-06-05T06:16:16Z</time>
      </trkpt>
      <trkpt lat="46.76405" lon="6.28484">
        <ele>876.86</ele>
        <time>2019-06-05T06:16:28Z</time>
      </trkpt>
      <trkpt lat="46.76402" lon="6.28553">
        <ele>877.34</ele>
        <time>2019-06-05T06:16:41Z</time>
      </trkpt>
      <trkpt lat="46.76398" lon="6.28627">
        <ele>878.78</ele>
        <time>2019-06-05T06:16:55Z</time>
      </trkpt>
      <trkpt lat="46.76429" lon="6.28681">
        <ele>879.74</ele>
        <time>2019-06-05T06:17:08Z</time>
      </trkpt>
      <trkpt lat="46.76444" lon="6.28748">
        <ele>880.22</ele>
        <time>2019-06-05T06:17:21Z</time>
      </trkpt>
      <trkpt lat="46.76435" lon="6.28806">
        <ele>879.74</ele>
        <time>2019-06-05T06:17:30Z</time>
      </trkpt>
      <trkpt lat="46.76432" lon="6.28835">
        <ele>878.78</ele>
        <time>2019-06-05T06:17:34Z</time>
      </trkpt>
      <trkpt lat="46.7643" lon="6.28892">
        <ele>878.3</ele>
        <time>2019-06-05T06:17:41Z</time>
      </trkpt>
      <trkpt lat="46.76421" lon="6.28941">
        <ele>876.86</ele>
        <time>2019-06-05T06:17:47Z</time>
      </trkpt>
      <trkpt lat="46.76412" lon="6.28977">
        <ele>876.86</ele>
        <time>2019-06-05T06:17:52Z</time>
      </trkpt>
      <trkpt lat="46.76403" lon="6.29022">
        <ele>876.86</ele>
        <time>2019-06-05T06:17:58Z</time>
      </trkpt>
      <trkpt lat="46.76395" lon="6.29041">
        <ele>876.86</ele>
        <time>2019-06-05T06:18:01Z</time>
      </trkpt>
      <trkpt lat="46.76389" lon="6.29061">
        <ele>876.86</ele>
        <time>2019-06-05T06:18:04Z</time>
      </trkpt>
      <trkpt lat="46.76385" lon="6.29073">
        <ele>877.34</ele>
        <time>2019-06-05T06:18:06Z</time>
      </trkpt>
      <trkpt lat="46.76376" lon="6.29098">
        <ele>877.82</ele>
        <time>2019-06-05T06:18:10Z</time>
      </trkpt>
      <trkpt lat="46.76371" lon="6.29115">
        <ele>878.3</ele>
        <time>2019-06-05T06:18:13Z</time>
      </trkpt>
      <trkpt lat="46.76365" lon="6.29125">
        <ele>878.3</ele>
        <time>2019-06-05T06:18:15Z</time>
      </trkpt>
      <trkpt lat="46.76342" lon="6.29155">
        <ele>879.74</ele>
        <time>2019-06-05T06:18:23Z</time>
      </trkpt>
      <trkpt lat="46.76308" lon="6.29197">
        <ele>881.67</ele>
        <time>2019-06-05T06:18:36Z</time>
      </trkpt>
      <trkpt lat="46.76289" lon="6.29244">
        <ele>882.63</ele>
        <time>2019-06-05T06:18:46Z</time>
      </trkpt>
      <trkpt lat="46.7628" lon="6.29259">
        <ele>883.11</ele>
        <time>2019-06-05T06:18:49Z</time>
      </trkpt>
      <trkpt lat="46.76225" lon="6.29298">
        <ele>885.51</ele>
        <time>2019-06-05T06:19:05Z</time>
      </trkpt>
      <trkpt lat="46.76182" lon="6.2934">
        <ele>887.43</ele>
        <time>2019-06-05T06:19:19Z</time>
      </trkpt>
      <trkpt lat="46.76148" lon="6.29383">
        <ele>889.36</ele>
        <time>2019-06-05T06:19:32Z</time>
      </trkpt>
      <trkpt lat="46.76122" lon="6.29419">
        <ele>890.8</ele>
        <time>2019-06-05T06:19:42Z</time>
      </trkpt>
      <trkpt lat="46.76095" lon="6.29455">
        <ele>892.24</ele>
        <time>2019-06-05T06:19:53Z</time>
      </trkpt>
      <trkpt lat="46.76068" lon="6.29491">
        <ele>893.68</ele>
        <time>2019-06-05T06:20:04Z</time>
      </trkpt>
      <trkpt lat="46.76048" lon="6.29533">
        <ele>895.12</ele>
        <time>2019-06-05T06:20:14Z</time>
      </trkpt>
      <trkpt lat="46.76037" lon="6.29579">
        <ele>896.09</ele>
        <time>2019-06-05T06:20:24Z</time>
      </trkpt>
      <trkpt lat="46.76028" lon="6.29605">
        <ele>896.57</ele>
        <time>2019-06-05T06:20:32Z</time>
      </trkpt>
      <trkpt lat="46.76026" lon="6.29608">
        <ele>896.57</ele>
        <time>2019-06-05T06:20:34Z</time>
      </trkpt>
      <trkpt lat="46.76028" lon="6.29605">
        <ele>896.57</ele>
        <time>2019-06-05T06:20:37Z</time>
      </trkpt>
      <trkpt lat="46.7603" lon="6.29603">
        <ele>896.57</ele>
        <time>2019-06-05T06:20:39Z</time>
      </trkpt>
      <trkpt lat="46.76028" lon="6.29601">
        <ele>897.05</ele>
        <time>2019-06-05T06:20:49Z</time>
      </trkpt>
      <trkpt lat="46.76028" lon="6.29601">
        <ele>895.61</ele>
        <time>2019-06-05T06:21:05Z</time>
      </trkpt>
      <trkpt lat="46.76028" lon="6.29601">
        <ele>895.61</ele>
        <time>2019-06-05T06:21:42Z</time>
      </trkpt>
      <trkpt lat="46.76028" lon="6.29601">
        <ele>896.09</ele>
        <time>2019-06-05T06:22:16Z</time>
      </trkpt>
      <trkpt lat="46.76029" lon="6.29602">
        <ele>896.57</ele>
        <time>2019-06-05T06:22:21Z</time>
      </trkpt>
      <trkpt lat="46.76028" lon="6.29606">
        <ele>896.57</ele>
        <time>2019-06-05T06:22:24Z</time>
      </trkpt>
      <trkpt lat="46.76023" lon="6.29648">
        <ele>897.53</ele>
        <time>2019-06-05T06:22:34Z</time>
      </trkpt>
      <trkpt lat="46.76022" lon="6.2966">
        <ele>897.53</ele>
        <time>2019-06-05T06:22:36Z</time>
      </trkpt>
      <trkpt lat="46.76007" lon="6.29703">
        <ele>898.97</ele>
        <time>2019-06-05T06:22:44Z</time>
      </trkpt>
      <trkpt lat="46.75999" lon="6.29711">
        <ele>899.45</ele>
        <time>2019-06-05T06:22:46Z</time>
      </trkpt>
      <trkpt lat="46.75987" lon="6.2972">
        <ele>900.41</ele>
        <time>2019-06-05T06:22:49Z</time>
      </trkpt>
      <trkpt lat="46.75968" lon="6.29728">
        <ele>900.89</ele>
        <time>2019-06-05T06:22:54Z</time>
      </trkpt>
      <trkpt lat="46.75955" lon="6.29731">
        <ele>900.89</ele>
        <time>2019-06-05T06:22:57Z</time>
      </trkpt>
      <trkpt lat="46.75943" lon="6.29738">
        <ele>901.37</ele>
        <time>2019-06-05T06:23:00Z</time>
      </trkpt>
      <trkpt lat="46.7593" lon="6.29752">
        <ele>901.85</ele>
        <time>2019-06-05T06:23:04Z</time>
      </trkpt>
      <trkpt lat="46.75912" lon="6.29768">
        <ele>902.82</ele>
        <time>2019-06-05T06:23:09Z</time>
      </trkpt>
      <trkpt lat="46.75888" lon="6.29785">
        <ele>903.78</ele>
        <time>2019-06-05T06:23:15Z</time>
      </trkpt>
      <trkpt lat="46.7588" lon="6.2979">
        <ele>904.26</ele>
        <time>2019-06-05T06:23:17Z</time>
      </trkpt>
      <trkpt lat="46.75847" lon="6.298">
        <ele>905.7</ele>
        <time>2019-06-05T06:23:25Z</time>
      </trkpt>
      <trkpt lat="46.75819" lon="6.29829">
        <ele>907.14</ele>
        <time>2019-06-05T06:23:33Z</time>
      </trkpt>
      <trkpt lat="46.75812" lon="6.29836">
        <ele>907.14</ele>
        <time>2019-06-05T06:23:35Z</time>
      </trkpt>
      <trkpt lat="46.75765" lon="6.29864">
        <ele>909.06</ele>
        <time>2019-06-05T06:23:48Z</time>
      </trkpt>
      <trkpt lat="46.75736" lon="6.29879">
        <ele>910.51</ele>
        <time>2019-06-05T06:23:57Z</time>
      </trkpt>
      <trkpt lat="46.75704" lon="6.29903">
        <ele>911.95</ele>
        <time>2019-06-05T06:24:08Z</time>
      </trkpt>
      <trkpt lat="46.75699" lon="6.29909">
        <ele>911.95</ele>
        <time>2019-06-05T06:24:10Z</time>
      </trkpt>
      <trkpt lat="46.7567" lon="6.29944">
        <ele>913.39</ele>
        <time>2019-06-05T06:24:21Z</time>
      </trkpt>
      <trkpt lat="46.75638" lon="6.29973">
        <ele>914.35</ele>
        <time>2019-06-05T06:24:32Z</time>
      </trkpt>
      <trkpt lat="46.75595" lon="6.29995">
        <ele>915.79</ele>
        <time>2019-06-05T06:24:44Z</time>
      </trkpt>
      <trkpt lat="46.7554" lon="6.29985">
        <ele>917.24</ele>
        <time>2019-06-05T06:24:59Z</time>
      </trkpt>
      <trkpt lat="46.75474" lon="6.29959">
        <ele>919.16</ele>
        <time>2019-06-05T06:25:17Z</time>
      </trkpt>
      <trkpt lat="46.75424" lon="6.29932">
        <ele>921.08</ele>
        <time>2019-06-05T06:25:33Z</time>
      </trkpt>
      <trkpt lat="46.75377" lon="6.29906">
        <ele>922.52</ele>
        <time>2019-06-05T06:25:48Z</time>
      </trkpt>
      <trkpt lat="46.75324" lon="6.2988">
        <ele>923.96</ele>
        <time>2019-06-05T06:26:05Z</time>
      </trkpt>
      <trkpt lat="46.753" lon="6.29866">
        <ele>924.45</ele>
        <time>2019-06-05T06:26:17Z</time>
      </trkpt>
      <trkpt lat="46.75301" lon="6.29872">
        <ele>924.45</ele>
        <time>2019-06-05T06:26:22Z</time>
      </trkpt>
      <trkpt lat="46.75308" lon="6.29877">
        <ele>924.45</ele>
        <time>2019-06-05T06:26:27Z</time>
      </trkpt>
      <trkpt lat="46.75304" lon="6.29869">
        <ele>924.93</ele>
        <time>2019-06-05T06:26:32Z</time>
      </trkpt>
      <trkpt lat="46.75253" lon="6.29841">
        <ele>923.96</ele>
        <time>2019-06-05T06:26:45Z</time>
      </trkpt>
      <trkpt lat="46.75187" lon="6.29768">
        <ele>920.12</ele>
        <time>2019-06-05T06:26:58Z</time>
      </trkpt>
      <trkpt lat="46.7517" lon="6.29748">
        <ele>919.16</ele>
        <time>2019-06-05T06:27:01Z</time>
      </trkpt>
      <trkpt lat="46.75134" lon="6.29734">
        <ele>918.2</ele>
        <time>2019-06-05T06:27:06Z</time>
      </trkpt>
      <trkpt lat="46.75059" lon="6.29698">
        <ele>916.75</ele>
        <time>2019-06-05T06:27:18Z</time>
      </trkpt>
      <trkpt lat="46.7498" lon="6.29635">
        <ele>913.39</ele>
        <time>2019-06-05T06:27:30Z</time>
      </trkpt>
      <trkpt lat="46.7492" lon="6.29574">
        <ele>910.03</ele>
        <time>2019-06-05T06:27:40Z</time>
      </trkpt>
      <trkpt lat="46.74915" lon="6.29567">
        <ele>910.03</ele>
        <time>2019-06-05T06:27:41Z</time>
      </trkpt>
      <trkpt lat="46.74849" lon="6.29479">
        <ele>907.62</ele>
        <time>2019-06-05T06:27:53Z</time>
      </trkpt>
      <trkpt lat="46.74785" lon="6.29466">
        <ele>906.66</ele>
        <time>2019-06-05T06:28:03Z</time>
      </trkpt>
      <trkpt lat="46.74757" lon="6.2948">
        <ele>906.66</ele>
        <time>2019-06-05T06:28:08Z</time>
      </trkpt>
      <trkpt lat="46.7473" lon="6.29515">
        <ele>906.66</ele>
        <time>2019-06-05T06:28:14Z</time>
      </trkpt>
      <trkpt lat="46.74679" lon="6.29561">
        <ele>907.14</ele>
        <time>2019-06-05T06:28:28Z</time>
      </trkpt>
      <trkpt lat="46.74662" lon="6.2957">
        <ele>907.62</ele>
        <time>2019-06-05T06:28:35Z</time>
      </trkpt>
      <trkpt lat="46.74643" lon="6.29534">
        <ele>908.58</ele>
        <time>2019-06-05T06:28:47Z</time>
      </trkpt>
      <trkpt lat="46.74624" lon="6.29474">
        <ele>909.06</ele>
        <time>2019-06-05T06:29:01Z</time>
      </trkpt>
      <trkpt lat="46.74608" lon="6.29421">
        <ele>909.54</ele>
        <time>2019-06-05T06:29:13Z</time>
      </trkpt>
      <trkpt lat="46.74605" lon="6.2941">
        <ele>910.03</ele>
        <time>2019-06-05T06:29:15Z</time>
      </trkpt>
      <trkpt lat="46.74579" lon="6.29322">
        <ele>910.99</ele>
        <time>2019-06-05T06:29:32Z</time>
      </trkpt>
      <trkpt lat="46.74561" lon="6.29268">
        <ele>911.95</ele>
        <time>2019-06-05T06:29:43Z</time>
      </trkpt>
      <trkpt lat="46.74544" lon="6.29213">
        <ele>912.91</ele>
        <time>2019-06-05T06:29:54Z</time>
      </trkpt>
      <trkpt lat="46.74529" lon="6.29175">
        <ele>913.39</ele>
        <time>2019-06-05T06:30:02Z</time>
      </trkpt>
      <trkpt lat="46.74516" lon="6.29181">
        <ele>914.35</ele>
        <time>2019-06-05T06:30:11Z</time>
      </trkpt>
      <trkpt lat="46.7452" lon="6.29185">
        <ele>913.87</ele>
        <time>2019-06-05T06:30:14Z</time>
      </trkpt>
      <trkpt lat="46.74524" lon="6.29183">
        <ele>913.87</ele>
        <time>2019-06-05T06:30:16Z</time>
      </trkpt>
      <trkpt lat="46.74539" lon="6.29199">
        <ele>913.39</ele>
        <time>2019-06-05T06:30:22Z</time>
      </trkpt>
      <trkpt lat="46.74543" lon="6.2921">
        <ele>912.91</ele>
        <time>2019-06-05T06:30:24Z</time>
      </trkpt>
      <trkpt lat="46.7455" lon="6.29234">
        <ele>912.91</ele>
        <time>2019-06-05T06:30:28Z</time>
      </trkpt>
      <trkpt lat="46.7456" lon="6.29267">
        <ele>912.43</ele>
        <time>2019-06-05T06:30:33Z</time>
      </trkpt>
      <trkpt lat="46.74597" lon="6.29386">
        <ele>911.47</ele>
        <time>2019-06-05T06:30:50Z</time>
      </trkpt>
      <trkpt lat="46.74635" lon="6.29507">
        <ele>910.03</ele>
        <time>2019-06-05T06:31:07Z</time>
      </trkpt>
      <trkpt lat="46.74638" lon="6.29514">
        <ele>909.54</ele>
        <time>2019-06-05T06:31:08Z</time>
      </trkpt>
      <trkpt lat="46.74643" lon="6.29533">
        <ele>909.54</ele>
        <time>2019-06-05T06:31:11Z</time>
      </trkpt>
      <trkpt lat="46.74651" lon="6.29556">
        <ele>909.54</ele>
        <time>2019-06-05T06:31:15Z</time>
      </trkpt>
      <trkpt lat="46.74677" lon="6.29564">
        <ele>908.58</ele>
        <time>2019-06-05T06:31:23Z</time>
      </trkpt>
      <trkpt lat="46.74693" lon="6.29551">
        <ele>908.1</ele>
        <time>2019-06-05T06:31:34Z</time>
      </trkpt>
      <trkpt lat="46.74693" lon="6.29551">
        <ele>908.1</ele>
        <time>2019-06-05T06:32:04Z</time>
      </trkpt>
      <trkpt lat="46.74693" lon="6.29551">
        <ele>908.1</ele>
        <time>2019-06-05T06:32:08Z</time>
      </trkpt>
      <trkpt lat="46.74686" lon="6.29556">
        <ele>908.58</ele>
        <time>2019-06-05T06:32:14Z</time>
      </trkpt>
      <trkpt lat="46.74663" lon="6.29571">
        <ele>908.58</ele>
        <time>2019-06-05T06:32:24Z</time>
      </trkpt>
      <trkpt lat="46.74657" lon="6.29586">
        <ele>909.06</ele>
        <time>2019-06-05T06:32:30Z</time>
      </trkpt>
      <trkpt lat="46.74658" lon="6.29592">
        <ele>908.58</ele>
        <time>2019-06-05T06:32:42Z</time>
      </trkpt>
      <trkpt lat="46.74658" lon="6.29592">
        <ele>908.58</ele>
        <time>2019-06-05T06:32:52Z</time>
      </trkpt>
      <trkpt lat="46.74663" lon="6.29598">
        <ele>908.58</ele>
        <time>2019-06-05T06:32:56Z</time>
      </trkpt>
      <trkpt lat="46.74668" lon="6.29608">
        <ele>908.1</ele>
        <time>2019-06-05T06:32:59Z</time>
      </trkpt>
      <trkpt lat="46.74673" lon="6.29626">
        <ele>908.1</ele>
        <time>2019-06-05T06:33:02Z</time>
      </trkpt>
      <trkpt lat="46.74679" lon="6.29654">
        <ele>906.66</ele>
        <time>2019-06-05T06:33:06Z</time>
      </trkpt>
      <trkpt lat="46.74691" lon="6.29693">
        <ele>905.7</ele>
        <time>2019-06-05T06:33:11Z</time>
      </trkpt>
      <trkpt lat="46.74695" lon="6.29769">
        <ele>903.78</ele>
        <time>2019-06-05T06:33:19Z</time>
      </trkpt>
      <trkpt lat="46.74659" lon="6.29877">
        <ele>903.3</ele>
        <time>2019-06-05T06:33:32Z</time>
      </trkpt>
      <trkpt lat="46.7465" lon="6.29927">
        <ele>903.3</ele>
        <time>2019-06-05T06:33:38Z</time>
      </trkpt>
      <trkpt lat="46.74652" lon="6.29962">
        <ele>902.82</ele>
        <time>2019-06-05T06:33:42Z</time>
      </trkpt>
      <trkpt lat="46.74669" lon="6.3002">
        <ele>902.33</ele>
        <time>2019-06-05T06:33:49Z</time>
      </trkpt>
      <trkpt lat="46.74675" lon="6.30034">
        <ele>902.33</ele>
        <time>2019-06-05T06:33:51Z</time>
      </trkpt>
      <trkpt lat="46.74688" lon="6.30065">
        <ele>903.3</ele>
        <time>2019-06-05T06:33:56Z</time>
      </trkpt>
      <trkpt lat="46.74709" lon="6.30118">
        <ele>904.26</ele>
        <time>2019-06-05T06:34:06Z</time>
      </trkpt>
      <trkpt lat="46.74743" lon="6.30211">
        <ele>906.66</ele>
        <time>2019-06-05T06:34:24Z</time>
      </trkpt>
      <trkpt lat="46.74776" lon="6.30298">
        <ele>908.1</ele>
        <time>2019-06-05T06:34:41Z</time>
      </trkpt>
      <trkpt lat="46.74784" lon="6.30318">
        <ele>908.58</ele>
        <time>2019-06-05T06:34:45Z</time>
      </trkpt>
      <trkpt lat="46.74787" lon="6.30329">
        <ele>908.58</ele>
        <time>2019-06-05T06:34:47Z</time>
      </trkpt>
      <trkpt lat="46.74813" lon="6.30404">
        <ele>909.06</ele>
        <time>2019-06-05T06:35:02Z</time>
      </trkpt>
      <trkpt lat="46.74845" lon="6.30492">
        <ele>908.1</ele>
        <time>2019-06-05T06:35:18Z</time>
      </trkpt>
      <trkpt lat="46.74893" lon="6.30587">
        <ele>906.18</ele>
        <time>2019-06-05T06:35:35Z</time>
      </trkpt>
      <trkpt lat="46.74946" lon="6.30671">
        <ele>906.66</ele>
        <time>2019-06-05T06:35:50Z</time>
      </trkpt>
      <trkpt lat="46.74952" lon="6.30681">
        <ele>906.66</ele>
        <time>2019-06-05T06:35:52Z</time>
      </trkpt>
      <trkpt lat="46.74985" lon="6.30737">
        <ele>907.62</ele>
        <time>2019-06-05T06:36:03Z</time>
      </trkpt>
      <trkpt lat="46.75009" lon="6.30779">
        <ele>908.1</ele>
        <time>2019-06-05T06:36:11Z</time>
      </trkpt>
      <trkpt lat="46.75027" lon="6.30808">
        <ele>908.1</ele>
        <time>2019-06-05T06:36:17Z</time>
      </trkpt>
      <trkpt lat="46.7508" lon="6.30897">
        <ele>909.06</ele>
        <time>2019-06-05T06:36:35Z</time>
      </trkpt>
      <trkpt lat="46.75097" lon="6.30926">
        <ele>909.54</ele>
        <time>2019-06-05T06:36:41Z</time>
      </trkpt>
      <trkpt lat="46.75136" lon="6.30999">
        <ele>911.47</ele>
        <time>2019-06-05T06:36:58Z</time>
      </trkpt>
      <trkpt lat="46.75164" lon="6.3104">
        <ele>910.99</ele>
        <time>2019-06-05T06:37:12Z</time>
      </trkpt>
      <trkpt lat="46.75177" lon="6.31054">
        <ele>910.51</ele>
        <time>2019-06-05T06:37:16Z</time>
      </trkpt>
      <trkpt lat="46.75198" lon="6.31083">
        <ele>909.54</ele>
        <time>2019-06-05T06:37:22Z</time>
      </trkpt>
      <trkpt lat="46.75209" lon="6.31101">
        <ele>909.06</ele>
        <time>2019-06-05T06:37:25Z</time>
      </trkpt>
      <trkpt lat="46.75215" lon="6.31114">
        <ele>908.58</ele>
        <time>2019-06-05T06:37:27Z</time>
      </trkpt>
      <trkpt lat="46.75229" lon="6.31141">
        <ele>908.1</ele>
        <time>2019-06-05T06:37:31Z</time>
      </trkpt>
      <trkpt lat="46.75248" lon="6.31183">
        <ele>908.1</ele>
        <time>2019-06-05T06:37:37Z</time>
      </trkpt>
      <trkpt lat="46.75265" lon="6.31246">
        <ele>908.58</ele>
        <time>2019-06-05T06:37:46Z</time>
      </trkpt>
      <trkpt lat="46.75276" lon="6.31294">
        <ele>909.06</ele>
        <time>2019-06-05T06:37:53Z</time>
      </trkpt>
      <trkpt lat="46.75286" lon="6.31328">
        <ele>909.06</ele>
        <time>2019-06-05T06:37:58Z</time>
      </trkpt>
      <trkpt lat="46.75293" lon="6.31347">
        <ele>909.54</ele>
        <time>2019-06-05T06:38:01Z</time>
      </trkpt>
      <trkpt lat="46.75334" lon="6.31444">
        <ele>911.95</ele>
        <time>2019-06-05T06:38:18Z</time>
      </trkpt>
      <trkpt lat="46.7534" lon="6.31461">
        <ele>912.43</ele>
        <time>2019-06-05T06:38:21Z</time>
      </trkpt>
      <trkpt lat="46.7535" lon="6.31482">
        <ele>912.91</ele>
        <time>2019-06-05T06:38:25Z</time>
      </trkpt>
      <trkpt lat="46.75376" lon="6.31534">
        <ele>914.35</ele>
        <time>2019-06-05T06:38:35Z</time>
      </trkpt>
      <trkpt lat="46.75385" lon="6.31555">
        <ele>914.83</ele>
        <time>2019-06-05T06:38:39Z</time>
      </trkpt>
      <trkpt lat="46.75404" lon="6.31624">
        <ele>916.75</ele>
        <time>2019-06-05T06:38:53Z</time>
      </trkpt>
      <trkpt lat="46.75407" lon="6.31644">
        <ele>917.24</ele>
        <time>2019-06-05T06:39:02Z</time>
      </trkpt>
      <trkpt lat="46.75415" lon="6.31655">
        <ele>916.75</ele>
        <time>2019-06-05T06:39:10Z</time>
      </trkpt>
      <trkpt lat="46.75421" lon="6.31673">
        <ele>916.75</ele>
        <time>2019-06-05T06:39:17Z</time>
      </trkpt>
      <trkpt lat="46.75434" lon="6.31693">
        <ele>916.27</ele>
        <time>2019-06-05T06:39:25Z</time>
      </trkpt>
      <trkpt lat="46.75444" lon="6.31703">
        <ele>915.79</ele>
        <time>2019-06-05T06:39:29Z</time>
      </trkpt>
      <trkpt lat="46.75497" lon="6.31769">
        <ele>913.39</ele>
        <time>2019-06-05T06:39:42Z</time>
      </trkpt>
      <trkpt lat="46.75549" lon="6.31831">
        <ele>912.43</ele>
        <time>2019-06-05T06:39:52Z</time>
      </trkpt>
      <trkpt lat="46.75621" lon="6.31927">
        <ele>911.95</ele>
        <time>2019-06-05T06:40:07Z</time>
      </trkpt>
      <trkpt lat="46.75677" lon="6.32004">
        <ele>911.95</ele>
        <time>2019-06-05T06:40:20Z</time>
      </trkpt>
      <trkpt lat="46.75685" lon="6.32015">
        <ele>912.43</ele>
        <time>2019-06-05T06:40:22Z</time>
      </trkpt>
      <trkpt lat="46.75745" lon="6.32102">
        <ele>912.91</ele>
        <time>2019-06-05T06:40:38Z</time>
      </trkpt>
      <trkpt lat="46.75748" lon="6.32107">
        <ele>912.91</ele>
        <time>2019-06-05T06:40:39Z</time>
      </trkpt>
      <trkpt lat="46.75769" lon="6.32136">
        <ele>913.39</ele>
        <time>2019-06-05T06:40:45Z</time>
      </trkpt>
      <trkpt lat="46.75787" lon="6.32162">
        <ele>913.39</ele>
        <time>2019-06-05T06:40:50Z</time>
      </trkpt>
      <trkpt lat="46.75858" lon="6.32246">
        <ele>913.39</ele>
        <time>2019-06-05T06:41:08Z</time>
      </trkpt>
      <trkpt lat="46.75958" lon="6.32303">
        <ele>911.47</ele>
        <time>2019-06-05T06:41:26Z</time>
      </trkpt>
      <trkpt lat="46.76007" lon="6.32326">
        <ele>910.99</ele>
        <time>2019-06-05T06:41:34Z</time>
      </trkpt>
      <trkpt lat="46.76124" lon="6.32381">
        <ele>910.99</ele>
        <time>2019-06-05T06:41:54Z</time>
      </trkpt>
      <trkpt lat="46.7617" lon="6.32402">
        <ele>910.99</ele>
        <time>2019-06-05T06:42:02Z</time>
      </trkpt>
      <trkpt lat="46.76252" lon="6.3244">
        <ele>910.03</ele>
        <time>2019-06-05T06:42:18Z</time>
      </trkpt>
      <trkpt lat="46.76279" lon="6.32452">
        <ele>909.54</ele>
        <time>2019-06-05T06:42:23Z</time>
      </trkpt>
      <trkpt lat="46.76283" lon="6.32491">
        <ele>909.54</ele>
        <time>2019-06-05T06:42:29Z</time>
      </trkpt>
      <trkpt lat="46.76245" lon="6.32554">
        <ele>912.91</ele>
        <time>2019-06-05T06:42:43Z</time>
      </trkpt>
      <trkpt lat="46.76213" lon="6.32609">
        <ele>916.27</ele>
        <time>2019-06-05T06:42:57Z</time>
      </trkpt>
      <trkpt lat="46.7619" lon="6.3265">
        <ele>919.64</ele>
        <time>2019-06-05T06:43:08Z</time>
      </trkpt>
      <trkpt lat="46.76183" lon="6.32673">
        <ele>920.6</ele>
        <time>2019-06-05T06:43:14Z</time>
      </trkpt>
      <trkpt lat="46.76191" lon="6.32691">
        <ele>921.56</ele>
        <time>2019-06-05T06:43:19Z</time>
      </trkpt>
      <trkpt lat="46.76211" lon="6.32703">
        <ele>922.04</ele>
        <time>2019-06-05T06:43:26Z</time>
      </trkpt>
      <trkpt lat="46.7624" lon="6.32741">
        <ele>923.96</ele>
        <time>2019-06-05T06:43:41Z</time>
      </trkpt>
      <trkpt lat="46.76244" lon="6.32747">
        <ele>924.45</ele>
        <time>2019-06-05T06:43:44Z</time>
      </trkpt>
      <trkpt lat="46.76272" lon="6.32785">
        <ele>926.85</ele>
        <time>2019-06-05T06:44:00Z</time>
      </trkpt>
      <trkpt lat="46.76293" lon="6.3282">
        <ele>929.25</ele>
        <time>2019-06-05T06:44:14Z</time>
      </trkpt>
      <trkpt lat="46.76313" lon="6.32856">
        <ele>930.69</ele>
        <time>2019-06-05T06:44:27Z</time>
      </trkpt>
      <trkpt lat="46.76328" lon="6.32885">
        <ele>932.14</ele>
        <time>2019-06-05T06:44:40Z</time>
      </trkpt>
      <trkpt lat="46.76336" lon="6.32892">
        <ele>933.1</ele>
        <time>2019-06-05T06:44:48Z</time>
      </trkpt>
      <trkpt lat="46.76332" lon="6.32877">
        <ele>932.62</ele>
        <time>2019-06-05T06:45:00Z</time>
      </trkpt>
      <trkpt lat="46.76331" lon="6.32877">
        <ele>932.14</ele>
        <time>2019-06-05T06:45:17Z</time>
      </trkpt>
      <trkpt lat="46.76331" lon="6.32877">
        <ele>932.14</ele>
        <time>2019-06-05T06:45:19Z</time>
      </trkpt>
      <trkpt lat="46.76326" lon="6.32874">
        <ele>932.14</ele>
        <time>2019-06-05T06:45:23Z</time>
      </trkpt>
      <trkpt lat="46.76323" lon="6.3287">
        <ele>931.65</ele>
        <time>2019-06-05T06:45:26Z</time>
      </trkpt>
      <trkpt lat="46.76323" lon="6.32879">
        <ele>932.14</ele>
        <time>2019-06-05T06:45:33Z</time>
      </trkpt>
      <trkpt lat="46.76327" lon="6.32882">
        <ele>932.62</ele>
        <time>2019-06-05T06:45:44Z</time>
      </trkpt>
      <trkpt lat="46.76327" lon="6.32881">
        <ele>932.62</ele>
        <time>2019-06-05T06:45:54Z</time>
      </trkpt>
      <trkpt lat="46.76329" lon="6.329">
        <ele>932.14</ele>
        <time>2019-06-05T06:51:03Z</time>
      </trkpt>
      <trkpt lat="46.76328" lon="6.32901">
        <ele>932.14</ele>
        <time>2019-06-05T06:51:04Z</time>
      </trkpt>
      <trkpt lat="46.76326" lon="6.32902">
        <ele>935.5</ele>
        <time>2019-06-05T06:51:19Z</time>
      </trkpt>
      <trkpt lat="46.76326" lon="6.32901">
        <ele>938.86</ele>
        <time>2019-06-05T06:51:30Z</time>
      </trkpt>
      <trkpt lat="46.76326" lon="6.32902">
        <ele>938.86</ele>
        <time>2019-06-05T06:51:31Z</time>
      </trkpt>
      <trkpt lat="46.76327" lon="6.32903">
        <ele>939.83</ele>
        <time>2019-06-05T06:51:35Z</time>
      </trkpt>
      <trkpt lat="46.76329" lon="6.32909">
        <ele>941.75</ele>
        <time>2019-06-05T06:51:41Z</time>
      </trkpt>
      <trkpt lat="46.76355" lon="6.32938">
        <ele>944.15</ele>
        <time>2019-06-05T06:51:55Z</time>
      </trkpt>
      <trkpt lat="46.76362" lon="6.32948">
        <ele>944.63</ele>
        <time>2019-06-05T06:52:00Z</time>
      </trkpt>
      <trkpt lat="46.76362" lon="6.32958">
        <ele>943.67</ele>
        <time>2019-06-05T06:52:12Z</time>
      </trkpt>
      <trkpt lat="46.76362" lon="6.32959">
        <ele>943.67</ele>
        <time>2019-06-05T06:52:13Z</time>
      </trkpt>
      <trkpt lat="46.7636" lon="6.32964">
        <ele>943.67</ele>
        <time>2019-06-05T06:52:26Z</time>
      </trkpt>
      <trkpt lat="46.7636" lon="6.32964">
        <ele>941.75</ele>
        <time>2019-06-05T06:52:33Z</time>
      </trkpt>
      <trkpt lat="46.76356" lon="6.32953">
        <ele>943.67</ele>
        <time>2019-06-05T06:58:16Z</time>
      </trkpt>
      <trkpt lat="46.76359" lon="6.3295">
        <ele>945.11</ele>
        <time>2019-06-05T06:58:28Z</time>
      </trkpt>
      <trkpt lat="46.76362" lon="6.32947">
        <ele>948</ele>
        <time>2019-06-05T06:58:44Z</time>
      </trkpt>
      <trkpt lat="46.76362" lon="6.32946">
        <ele>948.48</ele>
        <time>2019-06-05T06:58:45Z</time>
      </trkpt>
      <trkpt lat="46.76364" lon="6.32943">
        <ele>948.48</ele>
        <time>2019-06-05T06:58:47Z</time>
      </trkpt>
      <trkpt lat="46.76374" lon="6.32954">
        <ele>948.96</ele>
        <time>2019-06-05T06:58:52Z</time>
      </trkpt>
      <trkpt lat="46.76378" lon="6.3296">
        <ele>948.96</ele>
        <time>2019-06-05T06:58:55Z</time>
      </trkpt>
      <trkpt lat="46.76389" lon="6.32986">
        <ele>949.92</ele>
        <time>2019-06-05T06:59:05Z</time>
      </trkpt>
      <trkpt lat="46.76402" lon="6.33008">
        <ele>951.36</ele>
        <time>2019-06-05T06:59:15Z</time>
      </trkpt>
      <trkpt lat="46.76404" lon="6.33014">
        <ele>951.84</ele>
        <time>2019-06-05T06:59:17Z</time>
      </trkpt>
      <trkpt lat="46.76416" lon="6.33031">
        <ele>952.8</ele>
        <time>2019-06-05T06:59:27Z</time>
      </trkpt>
      <trkpt lat="46.76417" lon="6.33033">
        <ele>952.8</ele>
        <time>2019-06-05T06:59:28Z</time>
      </trkpt>
      <trkpt lat="46.76429" lon="6.33065">
        <ele>954.73</ele>
        <time>2019-06-05T06:59:41Z</time>
      </trkpt>
      <trkpt lat="46.76442" lon="6.33095">
        <ele>956.17</ele>
        <time>2019-06-05T06:59:52Z</time>
      </trkpt>
      <trkpt lat="46.76449" lon="6.33115">
        <ele>957.13</ele>
        <time>2019-06-05T06:59:58Z</time>
      </trkpt>
      <trkpt lat="46.76457" lon="6.33135">
        <ele>958.09</ele>
        <time>2019-06-05T07:00:07Z</time>
      </trkpt>
      <trkpt lat="46.76475" lon="6.33173">
        <ele>960.01</ele>
        <time>2019-06-05T07:00:21Z</time>
      </trkpt>
      <trkpt lat="46.76494" lon="6.33205">
        <ele>961.94</ele>
        <time>2019-06-05T07:00:32Z</time>
      </trkpt>
      <trkpt lat="46.76501" lon="6.33215">
        <ele>961.94</ele>
        <time>2019-06-05T07:00:36Z</time>
      </trkpt>
      <trkpt lat="46.7649" lon="6.33242">
        <ele>962.9</ele>
        <time>2019-06-05T07:00:48Z</time>
      </trkpt>
      <trkpt lat="46.76477" lon="6.33263">
        <ele>963.86</ele>
        <time>2019-06-05T07:00:59Z</time>
      </trkpt>
      <trkpt lat="46.76475" lon="6.33265">
        <ele>963.86</ele>
        <time>2019-06-05T07:01:00Z</time>
      </trkpt>
      <trkpt lat="46.76444" lon="6.33307">
        <ele>965.3</ele>
        <time>2019-06-05T07:01:16Z</time>
      </trkpt>
      <trkpt lat="46.76417" lon="6.33343">
        <ele>968.18</ele>
        <time>2019-06-05T07:01:29Z</time>
      </trkpt>
      <trkpt lat="46.76399" lon="6.33367">
        <ele>971.07</ele>
        <time>2019-06-05T07:01:38Z</time>
      </trkpt>
      <trkpt lat="46.7638" lon="6.33392">
        <ele>974.43</ele>
        <time>2019-06-05T07:01:48Z</time>
      </trkpt>
      <trkpt lat="46.76361" lon="6.33421">
        <ele>977.8</ele>
        <time>2019-06-05T07:01:58Z</time>
      </trkpt>
      <trkpt lat="46.76341" lon="6.33452">
        <ele>980.68</ele>
        <time>2019-06-05T07:02:09Z</time>
      </trkpt>
      <trkpt lat="46.76323" lon="6.33481">
        <ele>984.05</ele>
        <time>2019-06-05T07:02:19Z</time>
      </trkpt>
      <trkpt lat="46.76301" lon="6.33515">
        <ele>986.93</ele>
        <time>2019-06-05T07:02:31Z</time>
      </trkpt>
      <trkpt lat="46.76264" lon="6.33553">
        <ele>988.37</ele>
        <time>2019-06-05T07:02:47Z</time>
      </trkpt>
      <trkpt lat="46.76236" lon="6.3358">
        <ele>990.3</ele>
        <time>2019-06-05T07:03:00Z</time>
      </trkpt>
      <trkpt lat="46.76229" lon="6.33584">
        <ele>990.78</ele>
        <time>2019-06-05T07:03:05Z</time>
      </trkpt>
      <trkpt lat="46.76228" lon="6.33589">
        <ele>991.26</ele>
        <time>2019-06-05T07:03:09Z</time>
      </trkpt>
      <trkpt lat="46.76226" lon="6.33583">
        <ele>991.26</ele>
        <time>2019-06-05T07:03:16Z</time>
      </trkpt>
      <trkpt lat="46.76229" lon="6.33589">
        <ele>991.26</ele>
        <time>2019-06-05T07:03:25Z</time>
      </trkpt>
      <trkpt lat="46.76229" lon="6.33589">
        <ele>991.26</ele>
        <time>2019-06-05T07:03:52Z</time>
      </trkpt>
      <trkpt lat="46.76229" lon="6.33589">
        <ele>991.26</ele>
        <time>2019-06-05T07:04:09Z</time>
      </trkpt>
      <trkpt lat="46.76235" lon="6.33591">
        <ele>990.78</ele>
        <time>2019-06-05T07:04:12Z</time>
      </trkpt>
      <trkpt lat="46.76254" lon="6.33651">
        <ele>991.74</ele>
        <time>2019-06-05T07:04:24Z</time>
      </trkpt>
      <trkpt lat="46.76266" lon="6.33697">
        <ele>996.06</ele>
        <time>2019-06-05T07:04:32Z</time>
      </trkpt>
      <trkpt lat="46.76276" lon="6.33724">
        <ele>998.95</ele>
        <time>2019-06-05T07:04:38Z</time>
      </trkpt>
      <trkpt lat="46.7628" lon="6.33736">
        <ele>1000.39</ele>
        <time>2019-06-05T07:04:41Z</time>
      </trkpt>
      <trkpt lat="46.76288" lon="6.33764">
        <ele>1002.79</ele>
        <time>2019-06-05T07:04:49Z</time>
      </trkpt>
      <trkpt lat="46.76292" lon="6.33778">
        <ele>1003.27</ele>
        <time>2019-06-05T07:04:53Z</time>
      </trkpt>
      <trkpt lat="46.76304" lon="6.3382">
        <ele>1005.68</ele>
        <time>2019-06-05T07:05:09Z</time>
      </trkpt>
      <trkpt lat="46.76316" lon="6.33863">
        <ele>1008.08</ele>
        <time>2019-06-05T07:05:24Z</time>
      </trkpt>
      <trkpt lat="46.76317" lon="6.3387">
        <ele>1008.56</ele>
        <time>2019-06-05T07:05:26Z</time>
      </trkpt>
      <trkpt lat="46.76331" lon="6.33905">
        <ele>1011.93</ele>
        <time>2019-06-05T07:05:38Z</time>
      </trkpt>
      <trkpt lat="46.76346" lon="6.33934">
        <ele>1013.85</ele>
        <time>2019-06-05T07:05:48Z</time>
      </trkpt>
      <trkpt lat="46.76337" lon="6.33952">
        <ele>1015.77</ele>
        <time>2019-06-05T07:05:56Z</time>
      </trkpt>
      <trkpt lat="46.76351" lon="6.33956">
        <ele>1015.77</ele>
        <time>2019-06-05T07:06:03Z</time>
      </trkpt>
      <trkpt lat="46.76345" lon="6.33942">
        <ele>1014.81</ele>
        <time>2019-06-05T07:06:11Z</time>
      </trkpt>
      <trkpt lat="46.76343" lon="6.33951">
        <ele>1015.77</ele>
        <time>2019-06-05T07:06:17Z</time>
      </trkpt>
      <trkpt lat="46.7635" lon="6.33954">
        <ele>1015.29</ele>
        <time>2019-06-05T07:06:20Z</time>
      </trkpt>
      <trkpt lat="46.76354" lon="6.33957">
        <ele>1015.29</ele>
        <time>2019-06-05T07:06:22Z</time>
      </trkpt>
      <trkpt lat="46.76341" lon="6.33944">
        <ele>1014.81</ele>
        <time>2019-06-05T07:06:30Z</time>
      </trkpt>
      <trkpt lat="46.7634" lon="6.33946">
        <ele>1015.29</ele>
        <time>2019-06-05T07:06:40Z</time>
      </trkpt>
      <trkpt lat="46.7634" lon="6.33946">
        <ele>1015.29</ele>
        <time>2019-06-05T07:07:15Z</time>
      </trkpt>
      <trkpt lat="46.7634" lon="6.33946">
        <ele>1015.29</ele>
        <time>2019-06-05T07:07:47Z</time>
      </trkpt>
      <trkpt lat="46.7634" lon="6.33946">
        <ele>1014.81</ele>
        <time>2019-06-05T07:08:20Z</time>
      </trkpt>
      <trkpt lat="46.7634" lon="6.33947">
        <ele>1014.81</ele>
        <time>2019-06-05T07:08:35Z</time>
      </trkpt>
      <trkpt lat="46.76343" lon="6.33952">
        <ele>1014.81</ele>
        <time>2019-06-05T07:08:39Z</time>
      </trkpt>
      <trkpt lat="46.76354" lon="6.33957">
        <ele>1015.29</ele>
        <time>2019-06-05T07:08:43Z</time>
      </trkpt>
      <trkpt lat="46.76368" lon="6.33989">
        <ele>1016.73</ele>
        <time>2019-06-05T07:08:54Z</time>
      </trkpt>
      <trkpt lat="46.76386" lon="6.34032">
        <ele>1016.25</ele>
        <time>2019-06-05T07:09:07Z</time>
      </trkpt>
      <trkpt lat="46.7641" lon="6.34084">
        <ele>1016.73</ele>
        <time>2019-06-05T07:09:19Z</time>
      </trkpt>
      <trkpt lat="46.76417" lon="6.34103">
        <ele>1017.21</ele>
        <time>2019-06-05T07:09:26Z</time>
      </trkpt>
      <trkpt lat="46.76417" lon="6.34107">
        <ele>1016.73</ele>
        <time>2019-06-05T07:09:28Z</time>
      </trkpt>
      <trkpt lat="46.76418" lon="6.34102">
        <ele>1017.21</ele>
        <time>2019-06-05T07:09:34Z</time>
      </trkpt>
      <trkpt lat="46.76416" lon="6.34099">
        <ele>1016.73</ele>
        <time>2019-06-05T07:09:47Z</time>
      </trkpt>
      <trkpt lat="46.76414" lon="6.34103">
        <ele>1016.73</ele>
        <time>2019-06-05T07:09:50Z</time>
      </trkpt>
      <trkpt lat="46.76429" lon="6.34142">
        <ele>1017.21</ele>
        <time>2019-06-05T07:10:03Z</time>
      </trkpt>
      <trkpt lat="46.76443" lon="6.34204">
        <ele>1017.69</ele>
        <time>2019-06-05T07:10:17Z</time>
      </trkpt>
      <trkpt lat="46.76452" lon="6.34268">
        <ele>1018.65</ele>
        <time>2019-06-05T07:10:30Z</time>
      </trkpt>
      <trkpt lat="46.76463" lon="6.34346">
        <ele>1018.17</ele>
        <time>2019-06-05T07:10:46Z</time>
      </trkpt>
      <trkpt lat="46.76475" lon="6.34406">
        <ele>1016.73</ele>
        <time>2019-06-05T07:10:54Z</time>
      </trkpt>
      <trkpt lat="46.76477" lon="6.34435">
        <ele>1016.73</ele>
        <time>2019-06-05T07:10:58Z</time>
      </trkpt>
      <trkpt lat="46.76476" lon="6.34454">
        <ele>1017.21</ele>
        <time>2019-06-05T07:11:01Z</time>
      </trkpt>
      <trkpt lat="46.76475" lon="6.34478">
        <ele>1017.69</ele>
        <time>2019-06-05T07:11:05Z</time>
      </trkpt>
      <trkpt lat="46.76474" lon="6.34509">
        <ele>1018.17</ele>
        <time>2019-06-05T07:11:10Z</time>
      </trkpt>
      <trkpt lat="46.7649" lon="6.34589">
        <ele>1020.1</ele>
        <time>2019-06-05T07:11:26Z</time>
      </trkpt>
      <trkpt lat="46.76511" lon="6.34629">
        <ele>1020.1</ele>
        <time>2019-06-05T07:11:36Z</time>
      </trkpt>
      <trkpt lat="46.76531" lon="6.34704">
        <ele>1020.1</ele>
        <time>2019-06-05T07:11:51Z</time>
      </trkpt>
      <trkpt lat="46.7655" lon="6.34768">
        <ele>1020.58</ele>
        <time>2019-06-05T07:12:06Z</time>
      </trkpt>
      <trkpt lat="46.76576" lon="6.34811">
        <ele>1020.1</ele>
        <time>2019-06-05T07:12:17Z</time>
      </trkpt>
      <trkpt lat="46.76601" lon="6.34861">
        <ele>1019.62</ele>
        <time>2019-06-05T07:12:28Z</time>
      </trkpt>
      <trkpt lat="46.76607" lon="6.34878">
        <ele>1019.62</ele>
        <time>2019-06-05T07:12:31Z</time>
      </trkpt>
      <trkpt lat="46.76654" lon="6.34981">
        <ele>1018.65</ele>
        <time>2019-06-05T07:12:49Z</time>
      </trkpt>
      <trkpt lat="46.7667" lon="6.35022">
        <ele>1018.17</ele>
        <time>2019-06-05T07:12:55Z</time>
      </trkpt>
      <trkpt lat="46.76703" lon="6.35088">
        <ele>1017.21</ele>
        <time>2019-06-05T07:13:05Z</time>
      </trkpt>
      <trkpt lat="46.76747" lon="6.35132">
        <ele>1015.29</ele>
        <time>2019-06-05T07:13:14Z</time>
      </trkpt>
      <trkpt lat="46.76799" lon="6.35159">
        <ele>1012.89</ele>
        <time>2019-06-05T07:13:22Z</time>
      </trkpt>
      <trkpt lat="46.76876" lon="6.35162">
        <ele>1010.48</ele>
        <time>2019-06-05T07:13:34Z</time>
      </trkpt>
      <trkpt lat="46.76888" lon="6.35162">
        <ele>1010.48</ele>
        <time>2019-06-05T07:13:36Z</time>
      </trkpt>
      <trkpt lat="46.76906" lon="6.35178">
        <ele>1009.52</ele>
        <time>2019-06-05T07:13:41Z</time>
      </trkpt>
      <trkpt lat="46.76908" lon="6.35206">
        <ele>1009.52</ele>
        <time>2019-06-05T07:13:45Z</time>
      </trkpt>
      <trkpt lat="46.7692" lon="6.35236">
        <ele>1010.96</ele>
        <time>2019-06-05T07:13:50Z</time>
      </trkpt>
      <trkpt lat="46.76929" lon="6.35251">
        <ele>1011.44</ele>
        <time>2019-06-05T07:13:53Z</time>
      </trkpt>
      <trkpt lat="46.76956" lon="6.35315">
        <ele>1011.44</ele>
        <time>2019-06-05T07:14:06Z</time>
      </trkpt>
      <trkpt lat="46.76993" lon="6.35331">
        <ele>1009.04</ele>
        <time>2019-06-05T07:14:16Z</time>
      </trkpt>
      <trkpt lat="46.77031" lon="6.3534">
        <ele>1005.68</ele>
        <time>2019-06-05T07:14:22Z</time>
      </trkpt>
      <trkpt lat="46.77049" lon="6.35344">
        <ele>1004.23</ele>
        <time>2019-06-05T07:14:25Z</time>
      </trkpt>
      <trkpt lat="46.77059" lon="6.35347">
        <ele>1003.75</ele>
        <time>2019-06-05T07:14:27Z</time>
      </trkpt>
      <trkpt lat="46.77077" lon="6.35365">
        <ele>1002.79</ele>
        <time>2019-06-05T07:14:31Z</time>
      </trkpt>
      <trkpt lat="46.77087" lon="6.35412">
        <ele>1001.35</ele>
        <time>2019-06-05T07:14:36Z</time>
      </trkpt>
      <trkpt lat="46.77086" lon="6.35449">
        <ele>1001.83</ele>
        <time>2019-06-05T07:14:40Z</time>
      </trkpt>
      <trkpt lat="46.77077" lon="6.35467">
        <ele>1002.31</ele>
        <time>2019-06-05T07:14:43Z</time>
      </trkpt>
      <trkpt lat="46.77048" lon="6.35488">
        <ele>1004.72</ele>
        <time>2019-06-05T07:14:51Z</time>
      </trkpt>
      <trkpt lat="46.7702" lon="6.35505">
        <ele>1007.12</ele>
        <time>2019-06-05T07:15:03Z</time>
      </trkpt>
      <trkpt lat="46.77017" lon="6.35509">
        <ele>1007.12</ele>
        <time>2019-06-05T07:15:05Z</time>
      </trkpt>
      <trkpt lat="46.77007" lon="6.3551">
        <ele>1007.6</ele>
        <time>2019-06-05T07:15:10Z</time>
      </trkpt>
      <trkpt lat="46.76993" lon="6.35505">
        <ele>1008.56</ele>
        <time>2019-06-05T07:15:17Z</time>
      </trkpt>
      <trkpt lat="46.7699" lon="6.35511">
        <ele>1008.08</ele>
        <time>2019-06-05T07:15:21Z</time>
      </trkpt>
      <trkpt lat="46.76993" lon="6.35519">
        <ele>1008.56</ele>
        <time>2019-06-05T07:15:26Z</time>
      </trkpt>
      <trkpt lat="46.76997" lon="6.35521">
        <ele>1008.56</ele>
        <time>2019-06-05T07:15:30Z</time>
      </trkpt>
      <trkpt lat="46.77022" lon="6.35512">
        <ele>1007.12</ele>
        <time>2019-06-05T07:15:43Z</time>
      </trkpt>
      <trkpt lat="46.77026" lon="6.35511">
        <ele>1007.12</ele>
        <time>2019-06-05T07:15:47Z</time>
      </trkpt>
      <trkpt lat="46.77031" lon="6.35507">
        <ele>1006.64</ele>
        <time>2019-06-05T07:15:53Z</time>
      </trkpt>
      <trkpt lat="46.77038" lon="6.35503">
        <ele>1006.16</ele>
        <time>2019-06-05T07:15:59Z</time>
      </trkpt>
      <trkpt lat="46.77048" lon="6.35496">
        <ele>1005.68</ele>
        <time>2019-06-05T07:16:04Z</time>
      </trkpt>
      <trkpt lat="46.7708" lon="6.35473">
        <ele>1002.79</ele>
        <time>2019-06-05T07:16:13Z</time>
      </trkpt>
      <trkpt lat="46.77111" lon="6.3543">
        <ele>999.43</ele>
        <time>2019-06-05T07:16:21Z</time>
      </trkpt>
      <trkpt lat="46.77134" lon="6.35389">
        <ele>996.06</ele>
        <time>2019-06-05T07:16:26Z</time>
      </trkpt>
      <trkpt lat="46.77155" lon="6.35352">
        <ele>993.18</ele>
        <time>2019-06-05T07:16:30Z</time>
      </trkpt>
      <trkpt lat="46.77179" lon="6.3532">
        <ele>989.81</ele>
        <time>2019-06-05T07:16:34Z</time>
      </trkpt>
      <trkpt lat="46.77193" lon="6.35306">
        <ele>988.85</ele>
        <time>2019-06-05T07:16:36Z</time>
      </trkpt>
      <trkpt lat="46.77219" lon="6.35283">
        <ele>985.97</ele>
        <time>2019-06-05T07:16:40Z</time>
      </trkpt>
      <trkpt lat="46.77249" lon="6.3526">
        <ele>982.6</ele>
        <time>2019-06-05T07:16:44Z</time>
      </trkpt>
      <trkpt lat="46.77273" lon="6.35244">
        <ele>979.24</ele>
        <time>2019-06-05T07:16:47Z</time>
      </trkpt>
      <trkpt lat="46.77288" lon="6.35234">
        <ele>978.28</ele>
        <time>2019-06-05T07:16:49Z</time>
      </trkpt>
      <trkpt lat="46.77331" lon="6.35209">
        <ele>974.91</ele>
        <time>2019-06-05T07:16:55Z</time>
      </trkpt>
      <trkpt lat="46.77343" lon="6.35202">
        <ele>973.95</ele>
        <time>2019-06-05T07:16:57Z</time>
      </trkpt>
      <trkpt lat="46.77356" lon="6.35191">
        <ele>972.51</ele>
        <time>2019-06-05T07:17:00Z</time>
      </trkpt>
      <trkpt lat="46.77374" lon="6.35184">
        <ele>970.11</ele>
        <time>2019-06-05T07:17:08Z</time>
      </trkpt>
      <trkpt lat="46.77386" lon="6.35211">
        <ele>969.63</ele>
        <time>2019-06-05T07:17:15Z</time>
      </trkpt>
      <trkpt lat="46.77406" lon="6.35263">
        <ele>968.18</ele>
        <time>2019-06-05T07:17:24Z</time>
      </trkpt>
      <trkpt lat="46.77418" lon="6.35289">
        <ele>967.22</ele>
        <time>2019-06-05T07:17:28Z</time>
      </trkpt>
      <trkpt lat="46.77432" lon="6.35317">
        <ele>966.26</ele>
        <time>2019-06-05T07:17:32Z</time>
      </trkpt>
      <trkpt lat="46.77456" lon="6.3537">
        <ele>963.38</ele>
        <time>2019-06-05T07:17:39Z</time>
      </trkpt>
      <trkpt lat="46.77507" lon="6.35498">
        <ele>960.49</ele>
        <time>2019-06-05T07:17:54Z</time>
      </trkpt>
      <trkpt lat="46.77534" lon="6.35563">
        <ele>959.53</ele>
        <time>2019-06-05T07:18:02Z</time>
      </trkpt>
      <trkpt lat="46.7755" lon="6.35595">
        <ele>960.01</ele>
        <time>2019-06-05T07:18:07Z</time>
      </trkpt>
      <trkpt lat="46.77573" lon="6.35648">
        <ele>962.42</ele>
        <time>2019-06-05T07:18:19Z</time>
      </trkpt>
      <trkpt lat="46.77571" lon="6.35691">
        <ele>963.86</ele>
        <time>2019-06-05T07:18:31Z</time>
      </trkpt>
      <trkpt lat="46.77554" lon="6.35755">
        <ele>964.34</ele>
        <time>2019-06-05T07:18:47Z</time>
      </trkpt>
      <trkpt lat="46.77534" lon="6.35824">
        <ele>965.3</ele>
        <time>2019-06-05T07:19:02Z</time>
      </trkpt>
      <trkpt lat="46.77528" lon="6.35848">
        <ele>965.3</ele>
        <time>2019-06-05T07:19:07Z</time>
      </trkpt>
      <trkpt lat="46.7751" lon="6.35908">
        <ele>965.78</ele>
        <time>2019-06-05T07:19:19Z</time>
      </trkpt>
      <trkpt lat="46.77478" lon="6.3602">
        <ele>966.26</ele>
        <time>2019-06-05T07:19:39Z</time>
      </trkpt>
      <trkpt lat="46.77457" lon="6.3609">
        <ele>968.67</ele>
        <time>2019-06-05T07:19:54Z</time>
      </trkpt>
      <trkpt lat="46.77437" lon="6.36165">
        <ele>971.07</ele>
        <time>2019-06-05T07:20:11Z</time>
      </trkpt>
      <trkpt lat="46.77412" lon="6.36253">
        <ele>974.43</ele>
        <time>2019-06-05T07:20:30Z</time>
      </trkpt>
      <trkpt lat="46.77398" lon="6.36333">
        <ele>976.84</ele>
        <time>2019-06-05T07:20:48Z</time>
      </trkpt>
      <trkpt lat="46.7739" lon="6.36437">
        <ele>979.72</ele>
        <time>2019-06-05T07:21:11Z</time>
      </trkpt>
      <trkpt lat="46.77386" lon="6.36505">
        <ele>981.64</ele>
        <time>2019-06-05T07:21:25Z</time>
      </trkpt>
      <trkpt lat="46.77385" lon="6.36592">
        <ele>983.57</ele>
        <time>2019-06-05T07:21:43Z</time>
      </trkpt>
      <trkpt lat="46.77393" lon="6.3665">
        <ele>985.49</ele>
        <time>2019-06-05T07:21:56Z</time>
      </trkpt>
      <trkpt lat="46.77406" lon="6.36691">
        <ele>985.97</ele>
        <time>2019-06-05T07:22:06Z</time>
      </trkpt>
      <trkpt lat="46.77426" lon="6.36743">
        <ele>986.93</ele>
        <time>2019-06-05T07:22:20Z</time>
      </trkpt>
      <trkpt lat="46.77427" lon="6.36759">
        <ele>987.41</ele>
        <time>2019-06-05T07:22:24Z</time>
      </trkpt>
      <trkpt lat="46.77431" lon="6.36756">
        <ele>987.41</ele>
        <time>2019-06-05T07:22:28Z</time>
      </trkpt>
      <trkpt lat="46.7743" lon="6.3675">
        <ele>987.41</ele>
        <time>2019-06-05T07:22:30Z</time>
      </trkpt>
      <trkpt lat="46.77427" lon="6.36758">
        <ele>986.93</ele>
        <time>2019-06-05T07:22:36Z</time>
      </trkpt>
      <trkpt lat="46.77431" lon="6.36759">
        <ele>987.41</ele>
        <time>2019-06-05T07:22:39Z</time>
      </trkpt>
      <trkpt lat="46.77433" lon="6.36756">
        <ele>987.41</ele>
        <time>2019-06-05T07:22:42Z</time>
      </trkpt>
      <trkpt lat="46.77431" lon="6.36754">
        <ele>987.41</ele>
        <time>2019-06-05T07:22:44Z</time>
      </trkpt>
      <trkpt lat="46.77429" lon="6.36757">
        <ele>986.93</ele>
        <time>2019-06-05T07:22:50Z</time>
      </trkpt>
      <trkpt lat="46.77431" lon="6.36764">
        <ele>987.41</ele>
        <time>2019-06-05T07:22:54Z</time>
      </trkpt>
      <trkpt lat="46.7743" lon="6.3675">
        <ele>986.93</ele>
        <time>2019-06-05T07:23:03Z</time>
      </trkpt>
      <trkpt lat="46.77425" lon="6.36758">
        <ele>986.93</ele>
        <time>2019-06-05T07:23:09Z</time>
      </trkpt>
      <trkpt lat="46.77428" lon="6.36754">
        <ele>986.93</ele>
        <time>2019-06-05T07:23:16Z</time>
      </trkpt>
      <trkpt lat="46.77437" lon="6.36769">
        <ele>987.41</ele>
        <time>2019-06-05T07:23:20Z</time>
      </trkpt>
      <trkpt lat="46.77449" lon="6.3681">
        <ele>988.37</ele>
        <time>2019-06-05T07:23:30Z</time>
      </trkpt>
      <trkpt lat="46.77453" lon="6.36827">
        <ele>988.85</ele>
        <time>2019-06-05T07:23:34Z</time>
      </trkpt>
      <trkpt lat="46.77477" lon="6.36893">
        <ele>990.3</ele>
        <time>2019-06-05T07:23:50Z</time>
      </trkpt>
      <trkpt lat="46.77491" lon="6.3692">
        <ele>991.26</ele>
        <time>2019-06-05T07:24:01Z</time>
      </trkpt>
      <trkpt lat="46.77507" lon="6.36964">
        <ele>992.22</ele>
        <time>2019-06-05T07:24:14Z</time>
      </trkpt>
      <trkpt lat="46.77523" lon="6.36995">
        <ele>993.18</ele>
        <time>2019-06-05T07:24:24Z</time>
      </trkpt>
      <trkpt lat="46.77545" lon="6.37046">
        <ele>994.14</ele>
        <time>2019-06-05T07:24:37Z</time>
      </trkpt>
      <trkpt lat="46.77567" lon="6.37097">
        <ele>994.62</ele>
        <time>2019-06-05T07:24:49Z</time>
      </trkpt>
      <trkpt lat="46.7759" lon="6.37154">
        <ele>994.62</ele>
        <time>2019-06-05T07:25:01Z</time>
      </trkpt>
      <trkpt lat="46.77612" lon="6.37198">
        <ele>994.14</ele>
        <time>2019-06-05T07:25:11Z</time>
      </trkpt>
      <trkpt lat="46.77619" lon="6.3721">
        <ele>994.62</ele>
        <time>2019-06-05T07:25:14Z</time>
      </trkpt>
      <trkpt lat="46.77621" lon="6.37225">
        <ele>994.62</ele>
        <time>2019-06-05T07:25:19Z</time>
      </trkpt>
      <trkpt lat="46.77624" lon="6.37227">
        <ele>994.62</ele>
        <time>2019-06-05T07:25:30Z</time>
      </trkpt>
      <trkpt lat="46.77624" lon="6.37227">
        <ele>994.62</ele>
        <time>2019-06-05T07:25:35Z</time>
      </trkpt>
      <trkpt lat="46.77622" lon="6.37224">
        <ele>994.62</ele>
        <time>2019-06-05T07:25:37Z</time>
      </trkpt>
      <trkpt lat="46.77619" lon="6.37219">
        <ele>994.62</ele>
        <time>2019-06-05T07:25:41Z</time>
      </trkpt>
      <trkpt lat="46.77627" lon="6.37219">
        <ele>994.62</ele>
        <time>2019-06-05T07:25:47Z</time>
      </trkpt>
      <trkpt lat="46.77655" lon="6.3725">
        <ele>995.1</ele>
        <time>2019-06-05T07:25:57Z</time>
      </trkpt>
      <trkpt lat="46.77696" lon="6.37298">
        <ele>995.58</ele>
        <time>2019-06-05T07:26:10Z</time>
      </trkpt>
      <trkpt lat="46.77705" lon="6.37318">
        <ele>996.06</ele>
        <time>2019-06-05T07:26:14Z</time>
      </trkpt>
      <trkpt lat="46.77718" lon="6.37341">
        <ele>997.02</ele>
        <time>2019-06-05T07:26:20Z</time>
      </trkpt>
      <trkpt lat="46.77706" lon="6.37402">
        <ele>997.02</ele>
        <time>2019-06-05T07:26:33Z</time>
      </trkpt>
      <trkpt lat="46.777" lon="6.37427">
        <ele>997.02</ele>
        <time>2019-06-05T07:26:40Z</time>
      </trkpt>
      <trkpt lat="46.77704" lon="6.37429">
        <ele>997.02</ele>
        <time>2019-06-05T07:26:48Z</time>
      </trkpt>
      <trkpt lat="46.77704" lon="6.37429">
        <ele>997.02</ele>
        <time>2019-06-05T07:27:03Z</time>
      </trkpt>
      <trkpt lat="46.77704" lon="6.37429">
        <ele>997.02</ele>
        <time>2019-06-05T07:27:06Z</time>
      </trkpt>
      <trkpt lat="46.77708" lon="6.37415">
        <ele>998.95</ele>
        <time>2019-06-05T07:55:03Z</time>
      </trkpt>
      <trkpt lat="46.77717" lon="6.37361">
        <ele>999.91</ele>
        <time>2019-06-05T07:55:13Z</time>
      </trkpt>
      <trkpt lat="46.77723" lon="6.37334">
        <ele>1001.83</ele>
        <time>2019-06-05T07:55:20Z</time>
      </trkpt>
      <trkpt lat="46.7771" lon="6.37319">
        <ele>1001.35</ele>
        <time>2019-06-05T07:55:26Z</time>
      </trkpt>
      <trkpt lat="46.77697" lon="6.37293">
        <ele>1000.87</ele>
        <time>2019-06-05T07:55:31Z</time>
      </trkpt>
      <trkpt lat="46.77682" lon="6.37272">
        <ele>1000.39</ele>
        <time>2019-06-05T07:55:35Z</time>
      </trkpt>
      <trkpt lat="46.7763" lon="6.37216">
        <ele>999.43</ele>
        <time>2019-06-05T07:55:48Z</time>
      </trkpt>
      <trkpt lat="46.77606" lon="6.37176">
        <ele>998.95</ele>
        <time>2019-06-05T07:55:55Z</time>
      </trkpt>
      <trkpt lat="46.77595" lon="6.3715">
        <ele>998.95</ele>
        <time>2019-06-05T07:55:59Z</time>
      </trkpt>
      <trkpt lat="46.77545" lon="6.37036">
        <ele>998.95</ele>
        <time>2019-06-05T07:56:17Z</time>
      </trkpt>
      <trkpt lat="46.77501" lon="6.36933">
        <ele>997.02</ele>
        <time>2019-06-05T07:56:32Z</time>
      </trkpt>
      <trkpt lat="46.77461" lon="6.36824">
        <ele>993.66</ele>
        <time>2019-06-05T07:56:44Z</time>
      </trkpt>
      <trkpt lat="46.77441" lon="6.36766">
        <ele>992.7</ele>
        <time>2019-06-05T07:56:50Z</time>
      </trkpt>
      <trkpt lat="46.77412" lon="6.36689">
        <ele>990.78</ele>
        <time>2019-06-05T07:56:58Z</time>
      </trkpt>
      <trkpt lat="46.77391" lon="6.36559">
        <ele>987.89</ele>
        <time>2019-06-05T07:57:10Z</time>
      </trkpt>
      <trkpt lat="46.77398" lon="6.36413">
        <ele>984.05</ele>
        <time>2019-06-05T07:57:22Z</time>
      </trkpt>
      <trkpt lat="46.77399" lon="6.36401">
        <ele>984.05</ele>
        <time>2019-06-05T07:57:23Z</time>
      </trkpt>
      <trkpt lat="46.77411" lon="6.36284">
        <ele>980.2</ele>
        <time>2019-06-05T07:57:32Z</time>
      </trkpt>
      <trkpt lat="46.77438" lon="6.3618">
        <ele>976.84</ele>
        <time>2019-06-05T07:57:40Z</time>
      </trkpt>
      <trkpt lat="46.77442" lon="6.36168">
        <ele>976.84</ele>
        <time>2019-06-05T07:57:41Z</time>
      </trkpt>
      <trkpt lat="46.77468" lon="6.36077">
        <ele>973.47</ele>
        <time>2019-06-05T07:57:48Z</time>
      </trkpt>
      <trkpt lat="46.77498" lon="6.35972">
        <ele>970.59</ele>
        <time>2019-06-05T07:57:56Z</time>
      </trkpt>
      <trkpt lat="46.77549" lon="6.35791">
        <ele>969.63</ele>
        <time>2019-06-05T07:58:12Z</time>
      </trkpt>
      <trkpt lat="46.77583" lon="6.35668">
        <ele>967.7</ele>
        <time>2019-06-05T07:58:24Z</time>
      </trkpt>
      <trkpt lat="46.77561" lon="6.35612">
        <ele>965.3</ele>
        <time>2019-06-05T07:58:30Z</time>
      </trkpt>
      <trkpt lat="46.77561" lon="6.3559">
        <ele>964.34</ele>
        <time>2019-06-05T07:58:32Z</time>
      </trkpt>
      <trkpt lat="46.77572" lon="6.35526">
        <ele>960.98</ele>
        <time>2019-06-05T07:58:38Z</time>
      </trkpt>
      <trkpt lat="46.77582" lon="6.35515">
        <ele>960.49</ele>
        <time>2019-06-05T07:58:45Z</time>
      </trkpt>
      <trkpt lat="46.77582" lon="6.35515">
        <ele>961.46</ele>
        <time>2019-06-05T07:58:54Z</time>
      </trkpt>
      <trkpt lat="46.7758" lon="6.35526">
        <ele>961.94</ele>
        <time>2019-06-05T08:24:33Z</time>
      </trkpt>
      <trkpt lat="46.7758" lon="6.35515">
        <ele>961.94</ele>
        <time>2019-06-05T08:24:34Z</time>
      </trkpt>
      <trkpt lat="46.77573" lon="6.3551">
        <ele>961.94</ele>
        <time>2019-06-05T08:24:37Z</time>
      </trkpt>
      <trkpt lat="46.7757" lon="6.35525">
        <ele>961.46</ele>
        <time>2019-06-05T08:24:46Z</time>
      </trkpt>
      <trkpt lat="46.77568" lon="6.35551">
        <ele>960.98</ele>
        <time>2019-06-05T08:24:51Z</time>
      </trkpt>
      <trkpt lat="46.7756" lon="6.35587">
        <ele>960.49</ele>
        <time>2019-06-05T08:24:59Z</time>
      </trkpt>
      <trkpt lat="46.77542" lon="6.35569">
        <ele>959.53</ele>
        <time>2019-06-05T08:25:07Z</time>
      </trkpt>
      <trkpt lat="46.77539" lon="6.35564">
        <ele>959.05</ele>
        <time>2019-06-05T08:25:08Z</time>
      </trkpt>
      <trkpt lat="46.77523" lon="6.3553">
        <ele>958.09</ele>
        <time>2019-06-05T08:25:15Z</time>
      </trkpt>
      <trkpt lat="46.77498" lon="6.35455">
        <ele>958.57</ele>
        <time>2019-06-05T08:25:30Z</time>
      </trkpt>
      <trkpt lat="46.77467" lon="6.35379">
        <ele>959.05</ele>
        <time>2019-06-05T08:25:46Z</time>
      </trkpt>
      <trkpt lat="46.77463" lon="6.3537">
        <ele>959.05</ele>
        <time>2019-06-05T08:25:48Z</time>
      </trkpt>
      <trkpt lat="46.77436" lon="6.35313">
        <ele>960.98</ele>
        <time>2019-06-05T08:26:01Z</time>
      </trkpt>
      <trkpt lat="46.7741" lon="6.35256">
        <ele>963.38</ele>
        <time>2019-06-05T08:26:14Z</time>
      </trkpt>
      <trkpt lat="46.77385" lon="6.35195">
        <ele>965.3</ele>
        <time>2019-06-05T08:26:27Z</time>
      </trkpt>
      <trkpt lat="46.77371" lon="6.35144">
        <ele>964.82</ele>
        <time>2019-06-05T08:26:40Z</time>
      </trkpt>
      <trkpt lat="46.77357" lon="6.35082">
        <ele>964.34</ele>
        <time>2019-06-05T08:26:52Z</time>
      </trkpt>
      <trkpt lat="46.77351" lon="6.35047">
        <ele>964.34</ele>
        <time>2019-06-05T08:27:01Z</time>
      </trkpt>
      <trkpt lat="46.77344" lon="6.35048">
        <ele>965.3</ele>
        <time>2019-06-05T08:27:07Z</time>
      </trkpt>
      <trkpt lat="46.77343" lon="6.35048">
        <ele>965.3</ele>
        <time>2019-06-05T08:27:17Z</time>
      </trkpt>
      <trkpt lat="46.77345" lon="6.35046">
        <ele>964.82</ele>
        <time>2019-06-05T08:27:27Z</time>
      </trkpt>
      <trkpt lat="46.77346" lon="6.35047">
        <ele>964.82</ele>
        <time>2019-06-05T08:27:30Z</time>
      </trkpt>
      <trkpt lat="46.77343" lon="6.35064">
        <ele>964.82</ele>
        <time>2019-06-05T08:27:40Z</time>
      </trkpt>
      <trkpt lat="46.77344" lon="6.35064">
        <ele>964.82</ele>
        <time>2019-06-05T08:27:50Z</time>
      </trkpt>
      <trkpt lat="46.77346" lon="6.3507">
        <ele>965.3</ele>
        <time>2019-06-05T08:27:59Z</time>
      </trkpt>
      <trkpt lat="46.77346" lon="6.3507">
        <ele>965.3</ele>
        <time>2019-06-05T08:28:18Z</time>
      </trkpt>
      <trkpt lat="46.77346" lon="6.3507">
        <ele>965.3</ele>
        <time>2019-06-05T08:28:40Z</time>
      </trkpt>
      <trkpt lat="46.77349" lon="6.35067">
        <ele>964.82</ele>
        <time>2019-06-05T08:28:54Z</time>
      </trkpt>
      <trkpt lat="46.77348" lon="6.35036">
        <ele>964.82</ele>
        <time>2019-06-05T08:29:05Z</time>
      </trkpt>
      <trkpt lat="46.77345" lon="6.35016">
        <ele>965.3</ele>
        <time>2019-06-05T08:29:10Z</time>
      </trkpt>
      <trkpt lat="46.7733" lon="6.34942">
        <ele>966.74</ele>
        <time>2019-06-05T08:29:27Z</time>
      </trkpt>
      <trkpt lat="46.77315" lon="6.3487">
        <ele>965.78</ele>
        <time>2019-06-05T08:29:40Z</time>
      </trkpt>
      <trkpt lat="46.77312" lon="6.34847">
        <ele>964.82</ele>
        <time>2019-06-05T08:29:43Z</time>
      </trkpt>
      <trkpt lat="46.77308" lon="6.34833">
        <ele>964.34</ele>
        <time>2019-06-05T08:29:45Z</time>
      </trkpt>
      <trkpt lat="46.77293" lon="6.3477">
        <ele>960.98</ele>
        <time>2019-06-05T08:29:52Z</time>
      </trkpt>
      <trkpt lat="46.77279" lon="6.34725">
        <ele>957.61</ele>
        <time>2019-06-05T08:29:56Z</time>
      </trkpt>
      <trkpt lat="46.77282" lon="6.34663">
        <ele>953.77</ele>
        <time>2019-06-05T08:30:02Z</time>
      </trkpt>
      <trkpt lat="46.77296" lon="6.34661">
        <ele>953.77</ele>
        <time>2019-06-05T08:30:04Z</time>
      </trkpt>
      <trkpt lat="46.77329" lon="6.3466">
        <ele>951.84</ele>
        <time>2019-06-05T08:30:09Z</time>
      </trkpt>
      <trkpt lat="46.7739" lon="6.34653">
        <ele>948.96</ele>
        <time>2019-06-05T08:30:17Z</time>
      </trkpt>
      <trkpt lat="46.7742" lon="6.34635">
        <ele>947.52</ele>
        <time>2019-06-05T08:30:21Z</time>
      </trkpt>
      <trkpt lat="46.77486" lon="6.34588">
        <ele>944.15</ele>
        <time>2019-06-05T08:30:29Z</time>
      </trkpt>
      <trkpt lat="46.77495" lon="6.34583">
        <ele>943.67</ele>
        <time>2019-06-05T08:30:30Z</time>
      </trkpt>
      <trkpt lat="46.7753" lon="6.34516">
        <ele>943.67</ele>
        <time>2019-06-05T08:30:37Z</time>
      </trkpt>
      <trkpt lat="46.7754" lon="6.34464">
        <ele>944.63</ele>
        <time>2019-06-05T08:30:42Z</time>
      </trkpt>
      <trkpt lat="46.77562" lon="6.34411">
        <ele>947.52</ele>
        <time>2019-06-05T08:30:49Z</time>
      </trkpt>
      <trkpt lat="46.77568" lon="6.344">
        <ele>948</ele>
        <time>2019-06-05T08:30:51Z</time>
      </trkpt>
      <trkpt lat="46.77575" lon="6.3439">
        <ele>948</ele>
        <time>2019-06-05T08:30:53Z</time>
      </trkpt>
      <trkpt lat="46.77605" lon="6.34381">
        <ele>950.4</ele>
        <time>2019-06-05T08:31:01Z</time>
      </trkpt>
      <trkpt lat="46.77612" lon="6.34381">
        <ele>950.88</ele>
        <time>2019-06-05T08:31:04Z</time>
      </trkpt>
      <trkpt lat="46.77621" lon="6.34361">
        <ele>950.4</ele>
        <time>2019-06-05T08:31:09Z</time>
      </trkpt>
      <trkpt lat="46.77631" lon="6.34264">
        <ele>947.52</ele>
        <time>2019-06-05T08:31:20Z</time>
      </trkpt>
      <trkpt lat="46.77641" lon="6.34225">
        <ele>947.52</ele>
        <time>2019-06-05T08:31:24Z</time>
      </trkpt>
      <trkpt lat="46.77647" lon="6.34185">
        <ele>948.48</ele>
        <time>2019-06-05T08:31:29Z</time>
      </trkpt>
      <trkpt lat="46.77643" lon="6.3409">
        <ele>949.92</ele>
        <time>2019-06-05T08:31:40Z</time>
      </trkpt>
      <trkpt lat="46.77646" lon="6.33979">
        <ele>953.28</ele>
        <time>2019-06-05T08:31:54Z</time>
      </trkpt>
      <trkpt lat="46.77649" lon="6.33854">
        <ele>956.17</ele>
        <time>2019-06-05T08:32:11Z</time>
      </trkpt>
      <trkpt lat="46.77651" lon="6.33813">
        <ele>957.13</ele>
        <time>2019-06-05T08:32:17Z</time>
      </trkpt>
      <trkpt lat="46.77652" lon="6.33712">
        <ele>959.05</ele>
        <time>2019-06-05T08:32:31Z</time>
      </trkpt>
      <trkpt lat="46.77652" lon="6.33627">
        <ele>960.98</ele>
        <time>2019-06-05T08:32:43Z</time>
      </trkpt>
      <trkpt lat="46.77653" lon="6.33549">
        <ele>962.42</ele>
        <time>2019-06-05T08:32:54Z</time>
      </trkpt>
      <trkpt lat="46.77651" lon="6.33495">
        <ele>963.86</ele>
        <time>2019-06-05T08:33:02Z</time>
      </trkpt>
      <trkpt lat="46.77642" lon="6.33436">
        <ele>965.3</ele>
        <time>2019-06-05T08:33:11Z</time>
      </trkpt>
      <trkpt lat="46.77638" lon="6.33417">
        <ele>965.78</ele>
        <time>2019-06-05T08:33:14Z</time>
      </trkpt>
      <trkpt lat="46.77622" lon="6.33357">
        <ele>967.22</ele>
        <time>2019-06-05T08:33:24Z</time>
      </trkpt>
      <trkpt lat="46.77596" lon="6.33291">
        <ele>969.63</ele>
        <time>2019-06-05T08:33:36Z</time>
      </trkpt>
      <trkpt lat="46.77546" lon="6.33213">
        <ele>972.03</ele>
        <time>2019-06-05T08:33:54Z</time>
      </trkpt>
      <trkpt lat="46.77513" lon="6.33165">
        <ele>973.47</ele>
        <time>2019-06-05T08:34:06Z</time>
      </trkpt>
      <trkpt lat="46.77479" lon="6.33089">
        <ele>975.39</ele>
        <time>2019-06-05T08:34:21Z</time>
      </trkpt>
      <trkpt lat="46.77458" lon="6.32995">
        <ele>978.28</ele>
        <time>2019-06-05T08:34:37Z</time>
      </trkpt>
      <trkpt lat="46.77455" lon="6.32872">
        <ele>980.68</ele>
        <time>2019-06-05T08:34:56Z</time>
      </trkpt>
      <trkpt lat="46.77463" lon="6.32757">
        <ele>982.12</ele>
        <time>2019-06-05T08:35:15Z</time>
      </trkpt>
      <trkpt lat="46.7747" lon="6.32647">
        <ele>983.09</ele>
        <time>2019-06-05T08:35:35Z</time>
      </trkpt>
      <trkpt lat="46.77472" lon="6.32609">
        <ele>983.09</ele>
        <time>2019-06-05T08:35:42Z</time>
      </trkpt>
      <trkpt lat="46.77466" lon="6.32612">
        <ele>983.57</ele>
        <time>2019-06-05T08:35:47Z</time>
      </trkpt>
      <trkpt lat="46.77465" lon="6.32639">
        <ele>983.09</ele>
        <time>2019-06-05T08:35:55Z</time>
      </trkpt>
      <trkpt lat="46.77472" lon="6.32623">
        <ele>983.57</ele>
        <time>2019-06-05T08:36:02Z</time>
      </trkpt>
      <trkpt lat="46.77472" lon="6.32615">
        <ele>983.57</ele>
        <time>2019-06-05T08:36:04Z</time>
      </trkpt>
      <trkpt lat="46.77476" lon="6.32544">
        <ele>983.57</ele>
        <time>2019-06-05T08:36:19Z</time>
      </trkpt>
      <trkpt lat="46.77491" lon="6.32412">
        <ele>982.6</ele>
        <time>2019-06-05T08:36:34Z</time>
      </trkpt>
      <trkpt lat="46.77542" lon="6.32295">
        <ele>981.64</ele>
        <time>2019-06-05T08:36:47Z</time>
      </trkpt>
      <trkpt lat="46.77576" lon="6.32183">
        <ele>980.68</ele>
        <time>2019-06-05T08:36:58Z</time>
      </trkpt>
      <trkpt lat="46.77578" lon="6.32004">
        <ele>978.76</ele>
        <time>2019-06-05T08:37:13Z</time>
      </trkpt>
      <trkpt lat="46.77579" lon="6.31794">
        <ele>977.32</ele>
        <time>2019-06-05T08:37:30Z</time>
      </trkpt>
      <trkpt lat="46.7758" lon="6.31719">
        <ele>976.36</ele>
        <time>2019-06-05T08:37:36Z</time>
      </trkpt>
      <trkpt lat="46.77596" lon="6.31504">
        <ele>973.95</ele>
        <time>2019-06-05T08:37:53Z</time>
      </trkpt>
      <trkpt lat="46.7763" lon="6.31357">
        <ele>972.51</ele>
        <time>2019-06-05T08:38:05Z</time>
      </trkpt>
      <trkpt lat="46.77676" lon="6.31174">
        <ele>969.63</ele>
        <time>2019-06-05T08:38:21Z</time>
      </trkpt>
      <trkpt lat="46.7774" lon="6.31034">
        <ele>967.22</ele>
        <time>2019-06-05T08:38:34Z</time>
      </trkpt>
      <trkpt lat="46.77795" lon="6.30902">
        <ele>963.86</ele>
        <time>2019-06-05T08:38:46Z</time>
      </trkpt>
      <trkpt lat="46.77837" lon="6.3077">
        <ele>960.49</ele>
        <time>2019-06-05T08:38:57Z</time>
      </trkpt>
      <trkpt lat="46.77847" lon="6.30718">
        <ele>959.53</ele>
        <time>2019-06-05T08:39:01Z</time>
      </trkpt>
      <trkpt lat="46.77848" lon="6.3069">
        <ele>959.05</ele>
        <time>2019-06-05T08:39:03Z</time>
      </trkpt>
      <trkpt lat="46.77838" lon="6.3057">
        <ele>955.69</ele>
        <time>2019-06-05T08:39:12Z</time>
      </trkpt>
      <trkpt lat="46.77824" lon="6.30443">
        <ele>952.32</ele>
        <time>2019-06-05T08:39:21Z</time>
      </trkpt>
      <trkpt lat="46.77822" lon="6.30401">
        <ele>951.36</ele>
        <time>2019-06-05T08:39:24Z</time>
      </trkpt>
      <trkpt lat="46.77836" lon="6.30333">
        <ele>949.44</ele>
        <time>2019-06-05T08:39:29Z</time>
      </trkpt>
      <trkpt lat="46.77881" lon="6.30231">
        <ele>945.59</ele>
        <time>2019-06-05T08:39:37Z</time>
      </trkpt>
      <trkpt lat="46.77928" lon="6.3013">
        <ele>942.23</ele>
        <time>2019-06-05T08:39:45Z</time>
      </trkpt>
      <trkpt lat="46.77967" lon="6.30055">
        <ele>938.86</ele>
        <time>2019-06-05T08:39:51Z</time>
      </trkpt>
      <trkpt lat="46.77975" lon="6.30045">
        <ele>938.38</ele>
        <time>2019-06-05T08:39:52Z</time>
      </trkpt>
      <trkpt lat="46.77992" lon="6.30027">
        <ele>937.42</ele>
        <time>2019-06-05T08:39:54Z</time>
      </trkpt>
      <trkpt lat="46.78027" lon="6.29998">
        <ele>935.5</ele>
        <time>2019-06-05T08:39:58Z</time>
      </trkpt>
      <trkpt lat="46.78065" lon="6.29917">
        <ele>933.1</ele>
        <time>2019-06-05T08:40:05Z</time>
      </trkpt>
      <trkpt lat="46.7808" lon="6.2985">
        <ele>930.69</ele>
        <time>2019-06-05T08:40:10Z</time>
      </trkpt>
      <trkpt lat="46.78101" lon="6.29746">
        <ele>926.85</ele>
        <time>2019-06-05T08:40:18Z</time>
      </trkpt>
      <trkpt lat="46.78104" lon="6.29733">
        <ele>926.37</ele>
        <time>2019-06-05T08:40:19Z</time>
      </trkpt>
      <trkpt lat="46.78109" lon="6.29694">
        <ele>925.41</ele>
        <time>2019-06-05T08:40:22Z</time>
      </trkpt>
      <trkpt lat="46.78106" lon="6.29655">
        <ele>923.96</ele>
        <time>2019-06-05T08:40:25Z</time>
      </trkpt>
      <trkpt lat="46.78096" lon="6.29618">
        <ele>923</ele>
        <time>2019-06-05T08:40:28Z</time>
      </trkpt>
      <trkpt lat="46.78055" lon="6.29511">
        <ele>919.16</ele>
        <time>2019-06-05T08:40:37Z</time>
      </trkpt>
      <trkpt lat="46.78035" lon="6.29464">
        <ele>916.75</ele>
        <time>2019-06-05T08:40:41Z</time>
      </trkpt>
      <trkpt lat="46.77999" lon="6.29419">
        <ele>914.83</ele>
        <time>2019-06-05T08:40:46Z</time>
      </trkpt>
      <trkpt lat="46.77972" lon="6.29402">
        <ele>913.87</ele>
        <time>2019-06-05T08:40:49Z</time>
      </trkpt>
      <trkpt lat="46.77938" lon="6.29321">
        <ele>910.51</ele>
        <time>2019-06-05T08:40:56Z</time>
      </trkpt>
      <trkpt lat="46.77939" lon="6.29307">
        <ele>910.51</ele>
        <time>2019-06-05T08:40:57Z</time>
      </trkpt>
      <trkpt lat="46.77944" lon="6.2928">
        <ele>909.54</ele>
        <time>2019-06-05T08:40:59Z</time>
      </trkpt>
      <trkpt lat="46.77951" lon="6.29253">
        <ele>908.58</ele>
        <time>2019-06-05T08:41:01Z</time>
      </trkpt>
      <trkpt lat="46.77985" lon="6.29183">
        <ele>905.7</ele>
        <time>2019-06-05T08:41:07Z</time>
      </trkpt>
      <trkpt lat="46.77991" lon="6.29171">
        <ele>905.22</ele>
        <time>2019-06-05T08:41:08Z</time>
      </trkpt>
      <trkpt lat="46.78007" lon="6.29089">
        <ele>902.33</ele>
        <time>2019-06-05T08:41:14Z</time>
      </trkpt>
      <trkpt lat="46.77986" lon="6.28948">
        <ele>898.49</ele>
        <time>2019-06-05T08:41:24Z</time>
      </trkpt>
      <trkpt lat="46.77958" lon="6.28852">
        <ele>894.16</ele>
        <time>2019-06-05T08:41:31Z</time>
      </trkpt>
      <trkpt lat="46.7794" lon="6.28738">
        <ele>891.28</ele>
        <time>2019-06-05T08:41:39Z</time>
      </trkpt>
      <trkpt lat="46.77936" lon="6.28638">
        <ele>887.91</ele>
        <time>2019-06-05T08:41:47Z</time>
      </trkpt>
      <trkpt lat="46.77933" lon="6.28621">
        <ele>886.95</ele>
        <time>2019-06-05T08:41:49Z</time>
      </trkpt>
      <trkpt lat="46.77923" lon="6.28613">
        <ele>886.47</ele>
        <time>2019-06-05T08:41:51Z</time>
      </trkpt>
      <trkpt lat="46.77878" lon="6.28601">
        <ele>885.51</ele>
        <time>2019-06-05T08:41:58Z</time>
      </trkpt>
      <trkpt lat="46.77843" lon="6.28614">
        <ele>886.95</ele>
        <time>2019-06-05T08:42:04Z</time>
      </trkpt>
      <trkpt lat="46.77812" lon="6.28627">
        <ele>888.88</ele>
        <time>2019-06-05T08:42:11Z</time>
      </trkpt>
      <trkpt lat="46.77795" lon="6.28633">
        <ele>889.84</ele>
        <time>2019-06-05T08:42:15Z</time>
      </trkpt>
      <trkpt lat="46.77747" lon="6.28659">
        <ele>893.68</ele>
        <time>2019-06-05T08:42:28Z</time>
      </trkpt>
      <trkpt lat="46.77712" lon="6.28691">
        <ele>896.09</ele>
        <time>2019-06-05T08:42:39Z</time>
      </trkpt>
      <trkpt lat="46.77684" lon="6.28703">
        <ele>897.05</ele>
        <time>2019-06-05T08:42:48Z</time>
      </trkpt>
      <trkpt lat="46.77638" lon="6.28665">
        <ele>894.16</ele>
        <time>2019-06-05T08:42:58Z</time>
      </trkpt>
      <trkpt lat="46.77632" lon="6.28621">
        <ele>892.72</ele>
        <time>2019-06-05T08:43:02Z</time>
      </trkpt>
      <trkpt lat="46.77633" lon="6.28599">
        <ele>891.76</ele>
        <time>2019-06-05T08:43:04Z</time>
      </trkpt>
      <trkpt lat="46.7763" lon="6.28542">
        <ele>889.36</ele>
        <time>2019-06-05T08:43:09Z</time>
      </trkpt>
      <trkpt lat="46.77625" lon="6.28518">
        <ele>888.4</ele>
        <time>2019-06-05T08:43:11Z</time>
      </trkpt>
      <trkpt lat="46.77617" lon="6.28485">
        <ele>887.43</ele>
        <time>2019-06-05T08:43:14Z</time>
      </trkpt>
      <trkpt lat="46.7761" lon="6.28468">
        <ele>886.47</ele>
        <time>2019-06-05T08:43:16Z</time>
      </trkpt>
      <trkpt lat="46.77601" lon="6.28457">
        <ele>885.99</ele>
        <time>2019-06-05T08:43:18Z</time>
      </trkpt>
      <trkpt lat="46.77575" lon="6.28431">
        <ele>884.55</ele>
        <time>2019-06-05T08:43:24Z</time>
      </trkpt>
      <trkpt lat="46.77551" lon="6.28396">
        <ele>883.59</ele>
        <time>2019-06-05T08:43:30Z</time>
      </trkpt>
      <trkpt lat="46.77497" lon="6.2834">
        <ele>880.22</ele>
        <time>2019-06-05T08:43:42Z</time>
      </trkpt>
      <trkpt lat="46.77487" lon="6.28329">
        <ele>879.74</ele>
        <time>2019-06-05T08:43:44Z</time>
      </trkpt>
      <trkpt lat="46.77462" lon="6.28294">
        <ele>877.82</ele>
        <time>2019-06-05T08:43:50Z</time>
      </trkpt>
      <trkpt lat="46.77445" lon="6.28262">
        <ele>875.9</ele>
        <time>2019-06-05T08:43:55Z</time>
      </trkpt>
      <trkpt lat="46.77407" lon="6.28198">
        <ele>872.05</ele>
        <time>2019-06-05T08:44:03Z</time>
      </trkpt>
      <trkpt lat="46.7738" lon="6.2815">
        <ele>870.13</ele>
        <time>2019-06-05T08:44:08Z</time>
      </trkpt>
      <trkpt lat="46.77361" lon="6.28115">
        <ele>867.73</ele>
        <time>2019-06-05T08:44:12Z</time>
      </trkpt>
      <trkpt lat="46.77347" lon="6.28095">
        <ele>866.29</ele>
        <time>2019-06-05T08:44:15Z</time>
      </trkpt>
      <trkpt lat="46.77353" lon="6.28064">
        <ele>864.84</ele>
        <time>2019-06-05T08:44:20Z</time>
      </trkpt>
      <trkpt lat="46.77372" lon="6.28061">
        <ele>864.36</ele>
        <time>2019-06-05T08:44:23Z</time>
      </trkpt>
      <trkpt lat="46.77433" lon="6.28032">
        <ele>865.8</ele>
        <time>2019-06-05T08:44:34Z</time>
      </trkpt>
      <trkpt lat="46.77451" lon="6.28023">
        <ele>866.77</ele>
        <time>2019-06-05T08:44:38Z</time>
      </trkpt>
      <trkpt lat="46.77468" lon="6.28015">
        <ele>867.73</ele>
        <time>2019-06-05T08:44:42Z</time>
      </trkpt>
      <trkpt lat="46.77483" lon="6.2801">
        <ele>868.21</ele>
        <time>2019-06-05T08:44:48Z</time>
      </trkpt>
      <trkpt lat="46.77479" lon="6.28002">
        <ele>868.21</ele>
        <time>2019-06-05T08:44:53Z</time>
      </trkpt>
      <trkpt lat="46.77469" lon="6.28007">
        <ele>867.73</ele>
        <time>2019-06-05T08:44:56Z</time>
      </trkpt>
      <trkpt lat="46.77464" lon="6.27982">
        <ele>866.77</ele>
        <time>2019-06-05T08:45:03Z</time>
      </trkpt>
      <trkpt lat="46.7748" lon="6.27974">
        <ele>867.25</ele>
        <time>2019-06-05T08:45:08Z</time>
      </trkpt>
      <trkpt lat="46.77493" lon="6.27945">
        <ele>866.29</ele>
        <time>2019-06-05T08:45:16Z</time>
      </trkpt>
      <trkpt lat="46.77491" lon="6.27946">
        <ele>866.29</ele>
        <time>2019-06-05T08:45:26Z</time>
      </trkpt>
      <trkpt lat="46.77491" lon="6.27946">
        <ele>865.32</ele>
        <time>2019-06-05T08:45:30Z</time>
      </trkpt>
      <trkpt lat="46.77479" lon="6.27942">
        <ele>866.29</ele>
        <time>2019-06-05T08:49:04Z</time>
      </trkpt>
      <trkpt lat="46.7748" lon="6.2794">
        <ele>866.29</ele>
        <time>2019-06-05T08:49:05Z</time>
      </trkpt>
      <trkpt lat="46.7747" lon="6.27956">
        <ele>867.25</ele>
        <time>2019-06-05T08:49:11Z</time>
      </trkpt>
      <trkpt lat="46.77456" lon="6.28006">
        <ele>868.21</ele>
        <time>2019-06-05T08:49:23Z</time>
      </trkpt>
      <trkpt lat="46.77418" lon="6.28032">
        <ele>866.29</ele>
        <time>2019-06-05T08:49:33Z</time>
      </trkpt>
      <trkpt lat="46.77372" lon="6.28056">
        <ele>864.84</ele>
        <time>2019-06-05T08:49:41Z</time>
      </trkpt>
      <trkpt lat="46.7735" lon="6.2806">
        <ele>864.84</ele>
        <time>2019-06-05T08:49:45Z</time>
      </trkpt>
      <trkpt lat="46.7733" lon="6.28057">
        <ele>864.84</ele>
        <time>2019-06-05T08:49:49Z</time>
      </trkpt>
      <trkpt lat="46.77289" lon="6.28027">
        <ele>864.84</ele>
        <time>2019-06-05T08:49:58Z</time>
      </trkpt>
      <trkpt lat="46.77255" lon="6.27968">
        <ele>865.8</ele>
        <time>2019-06-05T08:50:10Z</time>
      </trkpt>
      <trkpt lat="46.77244" lon="6.27956">
        <ele>865.32</ele>
        <time>2019-06-05T08:50:13Z</time>
      </trkpt>
      <trkpt lat="46.77225" lon="6.27947">
        <ele>864.84</ele>
        <time>2019-06-05T08:50:17Z</time>
      </trkpt>
      <trkpt lat="46.77131" lon="6.27946">
        <ele>863.4</ele>
        <time>2019-06-05T08:50:33Z</time>
      </trkpt>
      <trkpt lat="46.77121" lon="6.27944">
        <ele>863.88</ele>
        <time>2019-06-05T08:50:35Z</time>
      </trkpt>
      <trkpt lat="46.77109" lon="6.27919">
        <ele>863.4</ele>
        <time>2019-06-05T08:50:40Z</time>
      </trkpt>
      <trkpt lat="46.77122" lon="6.27887">
        <ele>862.92</ele>
        <time>2019-06-05T08:50:45Z</time>
      </trkpt>
      <trkpt lat="46.77129" lon="6.27875">
        <ele>862.92</ele>
        <time>2019-06-05T08:50:47Z</time>
      </trkpt>
      <trkpt lat="46.77145" lon="6.27826">
        <ele>862.92</ele>
        <time>2019-06-05T08:50:54Z</time>
      </trkpt>
      <trkpt lat="46.77153" lon="6.27782">
        <ele>862.92</ele>
        <time>2019-06-05T08:51:00Z</time>
      </trkpt>
      <trkpt lat="46.77157" lon="6.27767">
        <ele>862.92</ele>
        <time>2019-06-05T08:51:02Z</time>
      </trkpt>
      <trkpt lat="46.77162" lon="6.2773">
        <ele>863.4</ele>
        <time>2019-06-05T08:51:07Z</time>
      </trkpt>
      <trkpt lat="46.77163" lon="6.2771">
        <ele>863.4</ele>
        <time>2019-06-05T08:51:10Z</time>
      </trkpt>
      <trkpt lat="46.77162" lon="6.2768">
        <ele>862.44</ele>
        <time>2019-06-05T08:51:14Z</time>
      </trkpt>
      <trkpt lat="46.77161" lon="6.27665">
        <ele>862.44</ele>
        <time>2019-06-05T08:51:16Z</time>
      </trkpt>
      <trkpt lat="46.77157" lon="6.27618">
        <ele>862.44</ele>
        <time>2019-06-05T08:51:22Z</time>
      </trkpt>
      <trkpt lat="46.77152" lon="6.27581">
        <ele>861.96</ele>
        <time>2019-06-05T08:51:27Z</time>
      </trkpt>
      <trkpt lat="46.77153" lon="6.27543">
        <ele>861.48</ele>
        <time>2019-06-05T08:51:34Z</time>
      </trkpt>
      <trkpt lat="46.77148" lon="6.27523">
        <ele>861</ele>
        <time>2019-06-05T08:51:38Z</time>
      </trkpt>
      <trkpt lat="46.7711" lon="6.27506">
        <ele>861</ele>
        <time>2019-06-05T08:51:50Z</time>
      </trkpt>
      <trkpt lat="46.77101" lon="6.2751">
        <ele>861</ele>
        <time>2019-06-05T08:51:53Z</time>
      </trkpt>
      <trkpt lat="46.77097" lon="6.27525">
        <ele>861.48</ele>
        <time>2019-06-05T08:51:57Z</time>
      </trkpt>
      <trkpt lat="46.77099" lon="6.27562">
        <ele>864.84</ele>
        <time>2019-06-05T08:52:08Z</time>
      </trkpt>
      <trkpt lat="46.77108" lon="6.27577">
        <ele>864.84</ele>
        <time>2019-06-05T08:52:16Z</time>
      </trkpt>
      <trkpt lat="46.77106" lon="6.2757">
        <ele>864.84</ele>
        <time>2019-06-05T08:52:25Z</time>
      </trkpt>
    </trkseg>
  </trk>
</gpx>